<?xml version="1.0" encoding="UTF-8" standalone="no" ?>
<gpx xmlns="http://www.topografix.com/GPX/1/1" xmlns:xsi="http://www.w3.org/2001/XMLSchema-instance" xsi:schemaLocation="http://www.topografix.com/GPX/1/1 http://www.topografix.com/GPX/1/1/gpx.xsd" version="1.1" creator="VisuGPX - https://www.visugpx.com">
  <metadata>
    <name>Montée à la croix </name>
    <desc><![CDATA[premiere sortie , neige peu présente ..mais grand beau !]]></desc>
  </metadata>
  <trk>
    <name><![CDATA[Untitled]]></name>
    <trkseg>
      <trkpt lat="45.59662" lon="6.66913">
        <ele>1452.8000488281</ele>
        <time>2014-01-12T08:56:35.000Z</time>
      </trkpt>
      <trkpt lat="45.59659" lon="6.66913">
        <ele>1452</ele>
        <time>2014-01-12T08:56:38.000Z</time>
      </trkpt>
      <trkpt lat="45.59653" lon="6.66913">
        <ele>1450</ele>
        <time>2014-01-12T08:57:19.000Z</time>
      </trkpt>
      <trkpt lat="45.59653" lon="6.66906">
        <ele>1450.5999755859</ele>
        <time>2014-01-12T08:57:25.000Z</time>
      </trkpt>
      <trkpt lat="45.59655" lon="6.66898">
        <ele>1451.4000244141</ele>
        <time>2014-01-12T08:57:31.000Z</time>
      </trkpt>
      <trkpt lat="45.59654" lon="6.66893">
        <ele>1451.4000244141</ele>
        <time>2014-01-12T08:57:37.000Z</time>
      </trkpt>
      <trkpt lat="45.59653" lon="6.66886">
        <ele>1451.5999755859</ele>
        <time>2014-01-12T08:57:43.000Z</time>
      </trkpt>
      <trkpt lat="45.59651" lon="6.66876">
        <ele>1451.8000488281</ele>
        <time>2014-01-12T08:57:48.000Z</time>
      </trkpt>
      <trkpt lat="45.5965" lon="6.66862">
        <ele>1452.4000244141</ele>
        <time>2014-01-12T08:57:55.000Z</time>
      </trkpt>
      <trkpt lat="45.59648" lon="6.66852">
        <ele>1452.8000488281</ele>
        <time>2014-01-12T08:58:00.000Z</time>
      </trkpt>
      <trkpt lat="45.59646" lon="6.66842">
        <ele>1453.1999511719</ele>
        <time>2014-01-12T08:58:07.000Z</time>
      </trkpt>
      <trkpt lat="45.59644" lon="6.66838">
        <ele>1453.1999511719</ele>
        <time>2014-01-12T08:58:13.000Z</time>
      </trkpt>
      <trkpt lat="45.5964" lon="6.66834">
        <ele>1453</ele>
        <time>2014-01-12T08:58:20.000Z</time>
      </trkpt>
      <trkpt lat="45.59637" lon="6.66831">
        <ele>1453.4000244141</ele>
        <time>2014-01-12T08:58:25.000Z</time>
      </trkpt>
      <trkpt lat="45.59633" lon="6.66829">
        <ele>1453.5999755859</ele>
        <time>2014-01-12T08:58:30.000Z</time>
      </trkpt>
      <trkpt lat="45.59629" lon="6.66829">
        <ele>1453.1999511719</ele>
        <time>2014-01-12T08:58:34.000Z</time>
      </trkpt>
      <trkpt lat="45.59625" lon="6.66828">
        <ele>1453</ele>
        <time>2014-01-12T08:58:40.000Z</time>
      </trkpt>
      <trkpt lat="45.59623" lon="6.66827">
        <ele>1453</ele>
        <time>2014-01-12T08:58:42.000Z</time>
      </trkpt>
      <trkpt lat="45.59615" lon="6.66821">
        <ele>1453.8000488281</ele>
        <time>2014-01-12T08:58:51.000Z</time>
      </trkpt>
      <trkpt lat="45.59613" lon="6.66818">
        <ele>1454.4000244141</ele>
        <time>2014-01-12T08:58:58.000Z</time>
      </trkpt>
      <trkpt lat="45.59608" lon="6.66814">
        <ele>1455.1999511719</ele>
        <time>2014-01-12T08:59:53.000Z</time>
      </trkpt>
      <trkpt lat="45.59598" lon="6.66796">
        <ele>1459.1999511719</ele>
        <time>2014-01-12T09:00:01.000Z</time>
      </trkpt>
      <trkpt lat="45.59594" lon="6.66785">
        <ele>1462.1999511719</ele>
        <time>2014-01-12T09:00:08.000Z</time>
      </trkpt>
      <trkpt lat="45.59594" lon="6.66781">
        <ele>1463.4000244141</ele>
        <time>2014-01-12T09:00:13.000Z</time>
      </trkpt>
      <trkpt lat="45.59588" lon="6.66767">
        <ele>1467.1999511719</ele>
        <time>2014-01-12T09:01:21.000Z</time>
      </trkpt>
      <trkpt lat="45.59597" lon="6.66767">
        <ele>1467.5999755859</ele>
        <time>2014-01-12T09:01:29.000Z</time>
      </trkpt>
      <trkpt lat="45.59605" lon="6.6677">
        <ele>1467.1999511719</ele>
        <time>2014-01-12T09:01:37.000Z</time>
      </trkpt>
      <trkpt lat="45.5961" lon="6.66771">
        <ele>1467.1999511719</ele>
        <time>2014-01-12T09:01:43.000Z</time>
      </trkpt>
      <trkpt lat="45.59614" lon="6.66771">
        <ele>1467.4000244141</ele>
        <time>2014-01-12T09:01:46.000Z</time>
      </trkpt>
      <trkpt lat="45.59618" lon="6.66769">
        <ele>1468.1999511719</ele>
        <time>2014-01-12T09:01:53.000Z</time>
      </trkpt>
      <trkpt lat="45.59621" lon="6.6677">
        <ele>1468</ele>
        <time>2014-01-12T09:02:38.000Z</time>
      </trkpt>
      <trkpt lat="45.59626" lon="6.66771">
        <ele>1468</ele>
        <time>2014-01-12T09:02:43.000Z</time>
      </trkpt>
      <trkpt lat="45.59631" lon="6.66772">
        <ele>1468</ele>
        <time>2014-01-12T09:02:49.000Z</time>
      </trkpt>
      <trkpt lat="45.59636" lon="6.66772">
        <ele>1468.1999511719</ele>
        <time>2014-01-12T09:02:53.000Z</time>
      </trkpt>
      <trkpt lat="45.59641" lon="6.66771">
        <ele>1469</ele>
        <time>2014-01-12T09:02:58.000Z</time>
      </trkpt>
      <trkpt lat="45.59646" lon="6.66769">
        <ele>1469.8000488281</ele>
        <time>2014-01-12T09:03:04.000Z</time>
      </trkpt>
      <trkpt lat="45.59647" lon="6.66768">
        <ele>1469.8000488281</ele>
        <time>2014-01-12T09:03:05.000Z</time>
      </trkpt>
      <trkpt lat="45.59657" lon="6.6677">
        <ele>1469.8000488281</ele>
        <time>2014-01-12T09:03:12.000Z</time>
      </trkpt>
      <trkpt lat="45.59659" lon="6.66771">
        <ele>1469.8000488281</ele>
        <time>2014-01-12T09:03:14.000Z</time>
      </trkpt>
      <trkpt lat="45.59666" lon="6.66772">
        <ele>1470</ele>
        <time>2014-01-12T09:03:21.000Z</time>
      </trkpt>
      <trkpt lat="45.59673" lon="6.66773">
        <ele>1471.1999511719</ele>
        <time>2014-01-12T09:03:28.000Z</time>
      </trkpt>
      <trkpt lat="45.59678" lon="6.66776">
        <ele>1471.8000488281</ele>
        <time>2014-01-12T09:03:34.000Z</time>
      </trkpt>
      <trkpt lat="45.59682" lon="6.6678">
        <ele>1472.1999511719</ele>
        <time>2014-01-12T09:03:40.000Z</time>
      </trkpt>
      <trkpt lat="45.59686" lon="6.66784">
        <ele>1472.4000244141</ele>
        <time>2014-01-12T09:03:48.000Z</time>
      </trkpt>
      <trkpt lat="45.59689" lon="6.66787">
        <ele>1472.4000244141</ele>
        <time>2014-01-12T09:03:53.000Z</time>
      </trkpt>
      <trkpt lat="45.59693" lon="6.66792">
        <ele>1472.4000244141</ele>
        <time>2014-01-12T09:04:00.000Z</time>
      </trkpt>
      <trkpt lat="45.59698" lon="6.66797">
        <ele>1472.4000244141</ele>
        <time>2014-01-12T09:04:07.000Z</time>
      </trkpt>
      <trkpt lat="45.59702" lon="6.66802">
        <ele>1472.4000244141</ele>
        <time>2014-01-12T09:04:13.000Z</time>
      </trkpt>
      <trkpt lat="45.59709" lon="6.66805">
        <ele>1473.1999511719</ele>
        <time>2014-01-12T09:04:19.000Z</time>
      </trkpt>
      <trkpt lat="45.59712" lon="6.6681">
        <ele>1473</ele>
        <time>2014-01-12T09:04:25.000Z</time>
      </trkpt>
      <trkpt lat="45.59716" lon="6.66816">
        <ele>1472.8000488281</ele>
        <time>2014-01-12T09:04:31.000Z</time>
      </trkpt>
      <trkpt lat="45.59719" lon="6.66823">
        <ele>1472</ele>
        <time>2014-01-12T09:04:37.000Z</time>
      </trkpt>
      <trkpt lat="45.59722" lon="6.6683">
        <ele>1471.4000244141</ele>
        <time>2014-01-12T09:04:43.000Z</time>
      </trkpt>
      <trkpt lat="45.59725" lon="6.66836">
        <ele>1471.1999511719</ele>
        <time>2014-01-12T09:04:48.000Z</time>
      </trkpt>
      <trkpt lat="45.59729" lon="6.66845">
        <ele>1471.8000488281</ele>
        <time>2014-01-12T09:04:55.000Z</time>
      </trkpt>
      <trkpt lat="45.59731" lon="6.66854">
        <ele>1472.1999511719</ele>
        <time>2014-01-12T09:05:02.000Z</time>
      </trkpt>
      <trkpt lat="45.59733" lon="6.66863">
        <ele>1472.1999511719</ele>
        <time>2014-01-12T09:05:08.000Z</time>
      </trkpt>
      <trkpt lat="45.59734" lon="6.6687">
        <ele>1472.1999511719</ele>
        <time>2014-01-12T09:05:13.000Z</time>
      </trkpt>
      <trkpt lat="45.59735" lon="6.66881">
        <ele>1472</ele>
        <time>2014-01-12T09:05:21.000Z</time>
      </trkpt>
      <trkpt lat="45.59736" lon="6.66889">
        <ele>1472</ele>
        <time>2014-01-12T09:05:28.000Z</time>
      </trkpt>
      <trkpt lat="45.59737" lon="6.66899">
        <ele>1471.5999755859</ele>
        <time>2014-01-12T09:05:35.000Z</time>
      </trkpt>
      <trkpt lat="45.59737" lon="6.66911">
        <ele>1471.1999511719</ele>
        <time>2014-01-12T09:05:44.000Z</time>
      </trkpt>
      <trkpt lat="45.59737" lon="6.66919">
        <ele>1470.5999755859</ele>
        <time>2014-01-12T09:05:49.000Z</time>
      </trkpt>
      <trkpt lat="45.59739" lon="6.66928">
        <ele>1470</ele>
        <time>2014-01-12T09:05:56.000Z</time>
      </trkpt>
      <trkpt lat="45.5974" lon="6.66933">
        <ele>1469.5999755859</ele>
        <time>2014-01-12T09:06:02.000Z</time>
      </trkpt>
      <trkpt lat="45.59742" lon="6.66935">
        <ele>1469.5999755859</ele>
        <time>2014-01-12T09:06:05.000Z</time>
      </trkpt>
      <trkpt lat="45.59745" lon="6.6694">
        <ele>1469.8000488281</ele>
        <time>2014-01-12T09:06:10.000Z</time>
      </trkpt>
      <trkpt lat="45.59748" lon="6.66948">
        <ele>1469.4000244141</ele>
        <time>2014-01-12T09:06:18.000Z</time>
      </trkpt>
      <trkpt lat="45.59752" lon="6.66954">
        <ele>1469.1999511719</ele>
        <time>2014-01-12T09:06:25.000Z</time>
      </trkpt>
      <trkpt lat="45.59757" lon="6.66957">
        <ele>1469.5999755859</ele>
        <time>2014-01-12T09:06:32.000Z</time>
      </trkpt>
      <trkpt lat="45.59764" lon="6.66959">
        <ele>1470.1999511719</ele>
        <time>2014-01-12T09:06:39.000Z</time>
      </trkpt>
      <trkpt lat="45.59765" lon="6.66959">
        <ele>1470.4000244141</ele>
        <time>2014-01-12T09:06:45.000Z</time>
      </trkpt>
      <trkpt lat="45.59767" lon="6.66956">
        <ele>1471.1999511719</ele>
        <time>2014-01-12T09:07:08.000Z</time>
      </trkpt>
      <trkpt lat="45.59775" lon="6.66954">
        <ele>1472.4000244141</ele>
        <time>2014-01-12T09:07:15.000Z</time>
      </trkpt>
      <trkpt lat="45.59779" lon="6.66953">
        <ele>1473</ele>
        <time>2014-01-12T09:07:18.000Z</time>
      </trkpt>
      <trkpt lat="45.59783" lon="6.66952">
        <ele>1474</ele>
        <time>2014-01-12T09:07:25.000Z</time>
      </trkpt>
      <trkpt lat="45.59786" lon="6.66948">
        <ele>1475</ele>
        <time>2014-01-12T09:07:38.000Z</time>
      </trkpt>
      <trkpt lat="45.59792" lon="6.66949">
        <ele>1475.8000488281</ele>
        <time>2014-01-12T09:07:44.000Z</time>
      </trkpt>
      <trkpt lat="45.59799" lon="6.66948">
        <ele>1476.5999755859</ele>
        <time>2014-01-12T09:07:50.000Z</time>
      </trkpt>
      <trkpt lat="45.59805" lon="6.66947">
        <ele>1477.8000488281</ele>
        <time>2014-01-12T09:07:57.000Z</time>
      </trkpt>
      <trkpt lat="45.59811" lon="6.66946">
        <ele>1478.8000488281</ele>
        <time>2014-01-12T09:08:03.000Z</time>
      </trkpt>
      <trkpt lat="45.59816" lon="6.66946">
        <ele>1479.5999755859</ele>
        <time>2014-01-12T09:08:08.000Z</time>
      </trkpt>
      <trkpt lat="45.59822" lon="6.66945">
        <ele>1480.5999755859</ele>
        <time>2014-01-12T09:08:14.000Z</time>
      </trkpt>
      <trkpt lat="45.59828" lon="6.66945">
        <ele>1481.5999755859</ele>
        <time>2014-01-12T09:08:21.000Z</time>
      </trkpt>
      <trkpt lat="45.59833" lon="6.66944">
        <ele>1482.4000244141</ele>
        <time>2014-01-12T09:08:27.000Z</time>
      </trkpt>
      <trkpt lat="45.59839" lon="6.66943">
        <ele>1483.8000488281</ele>
        <time>2014-01-12T09:08:33.000Z</time>
      </trkpt>
      <trkpt lat="45.5984" lon="6.66943">
        <ele>1484</ele>
        <time>2014-01-12T09:08:34.000Z</time>
      </trkpt>
      <trkpt lat="45.59847" lon="6.66943">
        <ele>1485.8000488281</ele>
        <time>2014-01-12T09:08:42.000Z</time>
      </trkpt>
      <trkpt lat="45.59851" lon="6.66944">
        <ele>1486.5999755859</ele>
        <time>2014-01-12T09:08:47.000Z</time>
      </trkpt>
      <trkpt lat="45.59857" lon="6.66945">
        <ele>1488</ele>
        <time>2014-01-12T09:08:53.000Z</time>
      </trkpt>
      <trkpt lat="45.59862" lon="6.66947">
        <ele>1488.5999755859</ele>
        <time>2014-01-12T09:08:59.000Z</time>
      </trkpt>
      <trkpt lat="45.59868" lon="6.6695">
        <ele>1489.1999511719</ele>
        <time>2014-01-12T09:09:05.000Z</time>
      </trkpt>
      <trkpt lat="45.59872" lon="6.66954">
        <ele>1489.4000244141</ele>
        <time>2014-01-12T09:09:11.000Z</time>
      </trkpt>
      <trkpt lat="45.59874" lon="6.66958">
        <ele>1489.1999511719</ele>
        <time>2014-01-12T09:09:15.000Z</time>
      </trkpt>
      <trkpt lat="45.59879" lon="6.66964">
        <ele>1489</ele>
        <time>2014-01-12T09:09:23.000Z</time>
      </trkpt>
      <trkpt lat="45.59884" lon="6.6697">
        <ele>1488.8000488281</ele>
        <time>2014-01-12T09:09:30.000Z</time>
      </trkpt>
      <trkpt lat="45.59888" lon="6.66974">
        <ele>1489</ele>
        <time>2014-01-12T09:09:36.000Z</time>
      </trkpt>
      <trkpt lat="45.59892" lon="6.66978">
        <ele>1489</ele>
        <time>2014-01-12T09:09:41.000Z</time>
      </trkpt>
      <trkpt lat="45.599" lon="6.66981">
        <ele>1490</ele>
        <time>2014-01-12T09:09:49.000Z</time>
      </trkpt>
      <trkpt lat="45.599" lon="6.66982">
        <ele>1490</ele>
        <time>2014-01-12T09:09:50.000Z</time>
      </trkpt>
      <trkpt lat="45.59902" lon="6.66987">
        <ele>1489.5999755859</ele>
        <time>2014-01-12T09:09:55.000Z</time>
      </trkpt>
      <trkpt lat="45.59905" lon="6.66992">
        <ele>1489.1999511719</ele>
        <time>2014-01-12T09:10:01.000Z</time>
      </trkpt>
      <trkpt lat="45.59908" lon="6.66996">
        <ele>1488.8000488281</ele>
        <time>2014-01-12T09:10:08.000Z</time>
      </trkpt>
      <trkpt lat="45.5991" lon="6.66999">
        <ele>1488.8000488281</ele>
        <time>2014-01-12T09:10:12.000Z</time>
      </trkpt>
      <trkpt lat="45.59913" lon="6.67001">
        <ele>1489</ele>
        <time>2014-01-12T09:10:18.000Z</time>
      </trkpt>
      <trkpt lat="45.59917" lon="6.67001">
        <ele>1489.8000488281</ele>
        <time>2014-01-12T09:10:22.000Z</time>
      </trkpt>
      <trkpt lat="45.59918" lon="6.67001">
        <ele>1490.1999511719</ele>
        <time>2014-01-12T09:10:24.000Z</time>
      </trkpt>
      <trkpt lat="45.59924" lon="6.67006">
        <ele>1490.4000244141</ele>
        <time>2014-01-12T09:10:30.000Z</time>
      </trkpt>
      <trkpt lat="45.59926" lon="6.67007">
        <ele>1490.5999755859</ele>
        <time>2014-01-12T09:10:35.000Z</time>
      </trkpt>
      <trkpt lat="45.5993" lon="6.6701">
        <ele>1490.8000488281</ele>
        <time>2014-01-12T09:10:40.000Z</time>
      </trkpt>
      <trkpt lat="45.59934" lon="6.67009">
        <ele>1491.8000488281</ele>
        <time>2014-01-12T09:10:49.000Z</time>
      </trkpt>
      <trkpt lat="45.59936" lon="6.67006">
        <ele>1492.8000488281</ele>
        <time>2014-01-12T09:11:09.000Z</time>
      </trkpt>
      <trkpt lat="45.59941" lon="6.67008">
        <ele>1493.4000244141</ele>
        <time>2014-01-12T09:11:17.000Z</time>
      </trkpt>
      <trkpt lat="45.59941" lon="6.67009">
        <ele>1493.4000244141</ele>
        <time>2014-01-12T09:11:18.000Z</time>
      </trkpt>
      <trkpt lat="45.59943" lon="6.67015">
        <ele>1492.4000244141</ele>
        <time>2014-01-12T09:11:28.000Z</time>
      </trkpt>
      <trkpt lat="45.5994" lon="6.6702">
        <ele>1491</ele>
        <time>2014-01-12T09:11:33.000Z</time>
      </trkpt>
      <trkpt lat="45.59946" lon="6.67022">
        <ele>1491.5999755859</ele>
        <time>2014-01-12T09:11:40.000Z</time>
      </trkpt>
      <trkpt lat="45.59948" lon="6.67019">
        <ele>1492.8000488281</ele>
        <time>2014-01-12T09:11:48.000Z</time>
      </trkpt>
      <trkpt lat="45.59951" lon="6.67015">
        <ele>1494.1999511719</ele>
        <time>2014-01-12T09:11:57.000Z</time>
      </trkpt>
      <trkpt lat="45.59954" lon="6.67012">
        <ele>1495.1999511719</ele>
        <time>2014-01-12T09:12:06.000Z</time>
      </trkpt>
      <trkpt lat="45.59955" lon="6.67013">
        <ele>1495.4000244141</ele>
        <time>2014-01-12T09:12:08.000Z</time>
      </trkpt>
      <trkpt lat="45.5996" lon="6.67013">
        <ele>1496.1999511719</ele>
        <time>2014-01-12T09:12:14.000Z</time>
      </trkpt>
      <trkpt lat="45.59965" lon="6.67014">
        <ele>1497.1999511719</ele>
        <time>2014-01-12T09:12:19.000Z</time>
      </trkpt>
      <trkpt lat="45.5997" lon="6.67014">
        <ele>1498</ele>
        <time>2014-01-12T09:12:24.000Z</time>
      </trkpt>
      <trkpt lat="45.59972" lon="6.67015">
        <ele>1498.4000244141</ele>
        <time>2014-01-12T09:12:27.000Z</time>
      </trkpt>
      <trkpt lat="45.59973" lon="6.67015">
        <ele>1498.5999755859</ele>
        <time>2014-01-12T09:12:29.000Z</time>
      </trkpt>
      <trkpt lat="45.59975" lon="6.67014">
        <ele>1499.1999511719</ele>
        <time>2014-01-12T09:12:32.000Z</time>
      </trkpt>
      <trkpt lat="45.5998" lon="6.67016">
        <ele>1500</ele>
        <time>2014-01-12T09:12:36.000Z</time>
      </trkpt>
      <trkpt lat="45.59985" lon="6.67018">
        <ele>1500.4000244141</ele>
        <time>2014-01-12T09:12:41.000Z</time>
      </trkpt>
      <trkpt lat="45.59988" lon="6.67019">
        <ele>1500.8000488281</ele>
        <time>2014-01-12T09:12:45.000Z</time>
      </trkpt>
      <trkpt lat="45.5999" lon="6.67016">
        <ele>1501.8000488281</ele>
        <time>2014-01-12T09:12:49.000Z</time>
      </trkpt>
      <trkpt lat="45.59996" lon="6.67017">
        <ele>1502.8000488281</ele>
        <time>2014-01-12T09:12:57.000Z</time>
      </trkpt>
      <trkpt lat="45.6" lon="6.67019">
        <ele>1503.4000244141</ele>
        <time>2014-01-12T09:13:03.000Z</time>
      </trkpt>
      <trkpt lat="45.60006" lon="6.67021">
        <ele>1504.8000488281</ele>
        <time>2014-01-12T09:13:11.000Z</time>
      </trkpt>
      <trkpt lat="45.6001" lon="6.67022">
        <ele>1506</ele>
        <time>2014-01-12T09:13:16.000Z</time>
      </trkpt>
      <trkpt lat="45.60013" lon="6.67023">
        <ele>1506.5999755859</ele>
        <time>2014-01-12T09:13:21.000Z</time>
      </trkpt>
      <trkpt lat="45.60014" lon="6.67024">
        <ele>1506.8000488281</ele>
        <time>2014-01-12T09:13:22.000Z</time>
      </trkpt>
      <trkpt lat="45.60019" lon="6.67025">
        <ele>1508</ele>
        <time>2014-01-12T09:13:27.000Z</time>
      </trkpt>
      <trkpt lat="45.60026" lon="6.67029">
        <ele>1509.5999755859</ele>
        <time>2014-01-12T09:13:36.000Z</time>
      </trkpt>
      <trkpt lat="45.6003" lon="6.67034">
        <ele>1510</ele>
        <time>2014-01-12T09:13:44.000Z</time>
      </trkpt>
      <trkpt lat="45.60033" lon="6.67038">
        <ele>1510.1999511719</ele>
        <time>2014-01-12T09:13:50.000Z</time>
      </trkpt>
      <trkpt lat="45.60038" lon="6.67043">
        <ele>1510.4000244141</ele>
        <time>2014-01-12T09:13:57.000Z</time>
      </trkpt>
      <trkpt lat="45.60041" lon="6.6705">
        <ele>1510</ele>
        <time>2014-01-12T09:14:04.000Z</time>
      </trkpt>
      <trkpt lat="45.60044" lon="6.67056">
        <ele>1510</ele>
        <time>2014-01-12T09:14:10.000Z</time>
      </trkpt>
      <trkpt lat="45.60047" lon="6.67061">
        <ele>1509.5999755859</ele>
        <time>2014-01-12T09:14:16.000Z</time>
      </trkpt>
      <trkpt lat="45.60051" lon="6.67068">
        <ele>1509.4000244141</ele>
        <time>2014-01-12T09:14:23.000Z</time>
      </trkpt>
      <trkpt lat="45.60053" lon="6.67073">
        <ele>1509.1999511719</ele>
        <time>2014-01-12T09:14:28.000Z</time>
      </trkpt>
      <trkpt lat="45.60055" lon="6.67082">
        <ele>1507.5999755859</ele>
        <time>2014-01-12T09:14:36.000Z</time>
      </trkpt>
      <trkpt lat="45.60055" lon="6.6709">
        <ele>1507.5999755859</ele>
        <time>2014-01-12T09:14:42.000Z</time>
      </trkpt>
      <trkpt lat="45.60056" lon="6.67096">
        <ele>1508</ele>
        <time>2014-01-12T09:14:48.000Z</time>
      </trkpt>
      <trkpt lat="45.60056" lon="6.67095">
        <ele>1508.1999511719</ele>
        <time>2014-01-12T09:14:57.000Z</time>
      </trkpt>
      <trkpt lat="45.60056" lon="6.671">
        <ele>1508.4000244141</ele>
        <time>2014-01-12T09:15:11.000Z</time>
      </trkpt>
      <trkpt lat="45.60057" lon="6.67103">
        <ele>1508.5999755859</ele>
        <time>2014-01-12T09:15:13.000Z</time>
      </trkpt>
      <trkpt lat="45.60059" lon="6.67109">
        <ele>1509.1999511719</ele>
        <time>2014-01-12T09:15:19.000Z</time>
      </trkpt>
      <trkpt lat="45.60059" lon="6.67113">
        <ele>1509.4000244141</ele>
        <time>2014-01-12T09:15:26.000Z</time>
      </trkpt>
      <trkpt lat="45.60058" lon="6.67117">
        <ele>1509.1999511719</ele>
        <time>2014-01-12T09:16:04.000Z</time>
      </trkpt>
      <trkpt lat="45.6006" lon="6.67129">
        <ele>1510.1999511719</ele>
        <time>2014-01-12T09:16:12.000Z</time>
      </trkpt>
      <trkpt lat="45.60065" lon="6.67133">
        <ele>1511.5999755859</ele>
        <time>2014-01-12T09:16:17.000Z</time>
      </trkpt>
      <trkpt lat="45.60069" lon="6.6713">
        <ele>1513</ele>
        <time>2014-01-12T09:16:22.000Z</time>
      </trkpt>
      <trkpt lat="45.6007" lon="6.67129">
        <ele>1513.1999511719</ele>
        <time>2014-01-12T09:16:23.000Z</time>
      </trkpt>
      <trkpt lat="45.60073" lon="6.67119">
        <ele>1513.5999755859</ele>
        <time>2014-01-12T09:16:30.000Z</time>
      </trkpt>
      <trkpt lat="45.60073" lon="6.67111">
        <ele>1513.5999755859</ele>
        <time>2014-01-12T09:16:36.000Z</time>
      </trkpt>
      <trkpt lat="45.60072" lon="6.671">
        <ele>1513.1999511719</ele>
        <time>2014-01-12T09:16:44.000Z</time>
      </trkpt>
      <trkpt lat="45.60072" lon="6.67091">
        <ele>1512.5999755859</ele>
        <time>2014-01-12T09:16:51.000Z</time>
      </trkpt>
      <trkpt lat="45.60071" lon="6.67087">
        <ele>1512.5999755859</ele>
        <time>2014-01-12T09:16:54.000Z</time>
      </trkpt>
      <trkpt lat="45.6007" lon="6.67077">
        <ele>1513.4000244141</ele>
        <time>2014-01-12T09:17:02.000Z</time>
      </trkpt>
      <trkpt lat="45.6007" lon="6.67074">
        <ele>1513.8000488281</ele>
        <time>2014-01-12T09:17:04.000Z</time>
      </trkpt>
      <trkpt lat="45.60069" lon="6.67068">
        <ele>1515</ele>
        <time>2014-01-12T09:17:09.000Z</time>
      </trkpt>
      <trkpt lat="45.60067" lon="6.67057">
        <ele>1516.8000488281</ele>
        <time>2014-01-12T09:17:17.000Z</time>
      </trkpt>
      <trkpt lat="45.60065" lon="6.67049">
        <ele>1517.8000488281</ele>
        <time>2014-01-12T09:17:23.000Z</time>
      </trkpt>
      <trkpt lat="45.60062" lon="6.67042">
        <ele>1518.4000244141</ele>
        <time>2014-01-12T09:17:28.000Z</time>
      </trkpt>
      <trkpt lat="45.60062" lon="6.67041">
        <ele>1518.5999755859</ele>
        <time>2014-01-12T09:17:29.000Z</time>
      </trkpt>
      <trkpt lat="45.60062" lon="6.6704">
        <ele>1518.5999755859</ele>
        <time>2014-01-12T09:17:40.000Z</time>
      </trkpt>
      <trkpt lat="45.6006" lon="6.67034">
        <ele>1519.1999511719</ele>
        <time>2014-01-12T09:17:49.000Z</time>
      </trkpt>
      <trkpt lat="45.60058" lon="6.67026">
        <ele>1520.1999511719</ele>
        <time>2014-01-12T09:17:55.000Z</time>
      </trkpt>
      <trkpt lat="45.60054" lon="6.67019">
        <ele>1520.5999755859</ele>
        <time>2014-01-12T09:18:01.000Z</time>
      </trkpt>
      <trkpt lat="45.60049" lon="6.6701">
        <ele>1520.8000488281</ele>
        <time>2014-01-12T09:18:08.000Z</time>
      </trkpt>
      <trkpt lat="45.60049" lon="6.6701">
        <ele>1520.8000488281</ele>
        <time>2014-01-12T09:18:13.000Z</time>
      </trkpt>
      <trkpt lat="45.60045" lon="6.67006">
        <ele>1520.5999755859</ele>
        <time>2014-01-12T09:18:25.000Z</time>
      </trkpt>
      <trkpt lat="45.6004" lon="6.66999">
        <ele>1520.1999511719</ele>
        <time>2014-01-12T09:18:33.000Z</time>
      </trkpt>
      <trkpt lat="45.60036" lon="6.66995">
        <ele>1520.4000244141</ele>
        <time>2014-01-12T09:18:38.000Z</time>
      </trkpt>
      <trkpt lat="45.60033" lon="6.66992">
        <ele>1520.1999511719</ele>
        <time>2014-01-12T09:18:43.000Z</time>
      </trkpt>
      <trkpt lat="45.60028" lon="6.66988">
        <ele>1519.8000488281</ele>
        <time>2014-01-12T09:18:50.000Z</time>
      </trkpt>
      <trkpt lat="45.60024" lon="6.66985">
        <ele>1519.4000244141</ele>
        <time>2014-01-12T09:18:55.000Z</time>
      </trkpt>
      <trkpt lat="45.60019" lon="6.66979">
        <ele>1519.8000488281</ele>
        <time>2014-01-12T09:19:01.000Z</time>
      </trkpt>
      <trkpt lat="45.60018" lon="6.66975">
        <ele>1520.8000488281</ele>
        <time>2014-01-12T09:19:05.000Z</time>
      </trkpt>
      <trkpt lat="45.60017" lon="6.66974">
        <ele>1521</ele>
        <time>2014-01-12T09:19:06.000Z</time>
      </trkpt>
      <trkpt lat="45.60015" lon="6.6697">
        <ele>1521.5999755859</ele>
        <time>2014-01-12T09:19:11.000Z</time>
      </trkpt>
      <trkpt lat="45.60014" lon="6.66964">
        <ele>1523</ele>
        <time>2014-01-12T09:19:18.000Z</time>
      </trkpt>
      <trkpt lat="45.60015" lon="6.66962">
        <ele>1524.1999511719</ele>
        <time>2014-01-12T09:19:22.000Z</time>
      </trkpt>
      <trkpt lat="45.60018" lon="6.6696">
        <ele>1525.4000244141</ele>
        <time>2014-01-12T09:19:26.000Z</time>
      </trkpt>
      <trkpt lat="45.6002" lon="6.6696">
        <ele>1526</ele>
        <time>2014-01-12T09:19:30.000Z</time>
      </trkpt>
      <trkpt lat="45.60023" lon="6.66963">
        <ele>1526.4000244141</ele>
        <time>2014-01-12T09:19:35.000Z</time>
      </trkpt>
      <trkpt lat="45.60027" lon="6.66965">
        <ele>1527</ele>
        <time>2014-01-12T09:19:40.000Z</time>
      </trkpt>
      <trkpt lat="45.6003" lon="6.66966">
        <ele>1527.4000244141</ele>
        <time>2014-01-12T09:19:47.000Z</time>
      </trkpt>
      <trkpt lat="45.60029" lon="6.66966">
        <ele>1527.1999511719</ele>
        <time>2014-01-12T09:20:04.000Z</time>
      </trkpt>
      <trkpt lat="45.60032" lon="6.66967">
        <ele>1527.8000488281</ele>
        <time>2014-01-12T09:20:09.000Z</time>
      </trkpt>
      <trkpt lat="45.60034" lon="6.66967">
        <ele>1528.5999755859</ele>
        <time>2014-01-12T09:20:13.000Z</time>
      </trkpt>
      <trkpt lat="45.60039" lon="6.66967">
        <ele>1530</ele>
        <time>2014-01-12T09:20:19.000Z</time>
      </trkpt>
      <trkpt lat="45.60043" lon="6.6697">
        <ele>1530.1999511719</ele>
        <time>2014-01-12T09:20:25.000Z</time>
      </trkpt>
      <trkpt lat="45.60047" lon="6.66975">
        <ele>1530</ele>
        <time>2014-01-12T09:20:31.000Z</time>
      </trkpt>
      <trkpt lat="45.60049" lon="6.66976">
        <ele>1530.1999511719</ele>
        <time>2014-01-12T09:20:37.000Z</time>
      </trkpt>
      <trkpt lat="45.6005" lon="6.66977">
        <ele>1530.1999511719</ele>
        <time>2014-01-12T09:20:44.000Z</time>
      </trkpt>
      <trkpt lat="45.6005" lon="6.66979">
        <ele>1529.8000488281</ele>
        <time>2014-01-12T09:21:04.000Z</time>
      </trkpt>
      <trkpt lat="45.60051" lon="6.66981">
        <ele>1529.4000244141</ele>
        <time>2014-01-12T09:22:01.000Z</time>
      </trkpt>
      <trkpt lat="45.60052" lon="6.66983">
        <ele>1529.1999511719</ele>
        <time>2014-01-12T09:22:07.000Z</time>
      </trkpt>
      <trkpt lat="45.60056" lon="6.66987">
        <ele>1529.1999511719</ele>
        <time>2014-01-12T09:22:21.000Z</time>
      </trkpt>
      <trkpt lat="45.60058" lon="6.66989">
        <ele>1529</ele>
        <time>2014-01-12T09:22:28.000Z</time>
      </trkpt>
      <trkpt lat="45.60063" lon="6.66991">
        <ele>1530.1999511719</ele>
        <time>2014-01-12T09:22:35.000Z</time>
      </trkpt>
      <trkpt lat="45.60068" lon="6.66993">
        <ele>1531.4000244141</ele>
        <time>2014-01-12T09:22:42.000Z</time>
      </trkpt>
      <trkpt lat="45.60073" lon="6.66997">
        <ele>1531.4000244141</ele>
        <time>2014-01-12T09:22:48.000Z</time>
      </trkpt>
      <trkpt lat="45.60077" lon="6.67002">
        <ele>1531.5999755859</ele>
        <time>2014-01-12T09:22:55.000Z</time>
      </trkpt>
      <trkpt lat="45.60079" lon="6.67004">
        <ele>1532</ele>
        <time>2014-01-12T09:22:59.000Z</time>
      </trkpt>
      <trkpt lat="45.60084" lon="6.67005">
        <ele>1533.1999511719</ele>
        <time>2014-01-12T09:24:05.000Z</time>
      </trkpt>
      <trkpt lat="45.60085" lon="6.67009">
        <ele>1532.5999755859</ele>
        <time>2014-01-12T09:24:15.000Z</time>
      </trkpt>
      <trkpt lat="45.60085" lon="6.67011">
        <ele>1532.1999511719</ele>
        <time>2014-01-12T09:24:19.000Z</time>
      </trkpt>
      <trkpt lat="45.6009" lon="6.67009">
        <ele>1533.8000488281</ele>
        <time>2014-01-12T09:24:24.000Z</time>
      </trkpt>
      <trkpt lat="45.60095" lon="6.67015">
        <ele>1534</ele>
        <time>2014-01-12T09:24:30.000Z</time>
      </trkpt>
      <trkpt lat="45.60097" lon="6.67017">
        <ele>1534.1999511719</ele>
        <time>2014-01-12T09:24:34.000Z</time>
      </trkpt>
      <trkpt lat="45.60104" lon="6.6702">
        <ele>1535.5999755859</ele>
        <time>2014-01-12T09:24:42.000Z</time>
      </trkpt>
      <trkpt lat="45.60105" lon="6.67021">
        <ele>1535.5999755859</ele>
        <time>2014-01-12T09:24:44.000Z</time>
      </trkpt>
      <trkpt lat="45.60109" lon="6.67028">
        <ele>1535.4000244141</ele>
        <time>2014-01-12T09:24:53.000Z</time>
      </trkpt>
      <trkpt lat="45.60116" lon="6.67033">
        <ele>1536.1999511719</ele>
        <time>2014-01-12T09:25:01.000Z</time>
      </trkpt>
      <trkpt lat="45.6012" lon="6.67043">
        <ele>1535.4000244141</ele>
        <time>2014-01-12T09:25:09.000Z</time>
      </trkpt>
      <trkpt lat="45.60125" lon="6.67051">
        <ele>1535</ele>
        <time>2014-01-12T09:25:16.000Z</time>
      </trkpt>
      <trkpt lat="45.60128" lon="6.67052">
        <ele>1535.8000488281</ele>
        <time>2014-01-12T09:25:22.000Z</time>
      </trkpt>
      <trkpt lat="45.60136" lon="6.67057">
        <ele>1536.5999755859</ele>
        <time>2014-01-12T09:25:31.000Z</time>
      </trkpt>
      <trkpt lat="45.60143" lon="6.67065">
        <ele>1537</ele>
        <time>2014-01-12T09:25:41.000Z</time>
      </trkpt>
      <trkpt lat="45.60148" lon="6.67073">
        <ele>1536.8000488281</ele>
        <time>2014-01-12T09:25:49.000Z</time>
      </trkpt>
      <trkpt lat="45.60154" lon="6.67081">
        <ele>1536.8000488281</ele>
        <time>2014-01-12T09:25:57.000Z</time>
      </trkpt>
      <trkpt lat="45.60159" lon="6.67088">
        <ele>1538</ele>
        <time>2014-01-12T09:26:05.000Z</time>
      </trkpt>
      <trkpt lat="45.60162" lon="6.67093">
        <ele>1539.1999511719</ele>
        <time>2014-01-12T09:26:10.000Z</time>
      </trkpt>
      <trkpt lat="45.60164" lon="6.67099">
        <ele>1540</ele>
        <time>2014-01-12T09:26:14.000Z</time>
      </trkpt>
      <trkpt lat="45.60168" lon="6.67109">
        <ele>1541.4000244141</ele>
        <time>2014-01-12T09:26:22.000Z</time>
      </trkpt>
      <trkpt lat="45.6017" lon="6.67111">
        <ele>1542.4000244141</ele>
        <time>2014-01-12T09:26:25.000Z</time>
      </trkpt>
      <trkpt lat="45.60174" lon="6.67114">
        <ele>1543.5999755859</ele>
        <time>2014-01-12T09:26:30.000Z</time>
      </trkpt>
      <trkpt lat="45.60181" lon="6.67122">
        <ele>1545.8000488281</ele>
        <time>2014-01-12T09:26:40.000Z</time>
      </trkpt>
      <trkpt lat="45.60184" lon="6.67127">
        <ele>1546.5999755859</ele>
        <time>2014-01-12T09:26:49.000Z</time>
      </trkpt>
      <trkpt lat="45.60185" lon="6.67133">
        <ele>1547</ele>
        <time>2014-01-12T09:26:54.000Z</time>
      </trkpt>
      <trkpt lat="45.60183" lon="6.67141">
        <ele>1546.5999755859</ele>
        <time>2014-01-12T09:27:02.000Z</time>
      </trkpt>
      <trkpt lat="45.60178" lon="6.67149">
        <ele>1545.5999755859</ele>
        <time>2014-01-12T09:28:08.000Z</time>
      </trkpt>
      <trkpt lat="45.60181" lon="6.6715">
        <ele>1546.4000244141</ele>
        <time>2014-01-12T09:28:15.000Z</time>
      </trkpt>
      <trkpt lat="45.60181" lon="6.67156">
        <ele>1546.5999755859</ele>
        <time>2014-01-12T09:28:22.000Z</time>
      </trkpt>
      <trkpt lat="45.60177" lon="6.67165">
        <ele>1546</ele>
        <time>2014-01-12T09:28:29.000Z</time>
      </trkpt>
      <trkpt lat="45.60173" lon="6.67173">
        <ele>1545.1999511719</ele>
        <time>2014-01-12T09:28:36.000Z</time>
      </trkpt>
      <trkpt lat="45.60169" lon="6.6718">
        <ele>1544.5999755859</ele>
        <time>2014-01-12T09:28:42.000Z</time>
      </trkpt>
      <trkpt lat="45.60169" lon="6.67182">
        <ele>1544.4000244141</ele>
        <time>2014-01-12T09:28:43.000Z</time>
      </trkpt>
      <trkpt lat="45.60165" lon="6.67189">
        <ele>1543.4000244141</ele>
        <time>2014-01-12T09:28:50.000Z</time>
      </trkpt>
      <trkpt lat="45.60163" lon="6.67192">
        <ele>1543</ele>
        <time>2014-01-12T09:28:53.000Z</time>
      </trkpt>
      <trkpt lat="45.60159" lon="6.67203">
        <ele>1541.8000488281</ele>
        <time>2014-01-12T09:29:02.000Z</time>
      </trkpt>
      <trkpt lat="45.60157" lon="6.67213">
        <ele>1541.4000244141</ele>
        <time>2014-01-12T09:29:09.000Z</time>
      </trkpt>
      <trkpt lat="45.60156" lon="6.67224">
        <ele>1541.1999511719</ele>
        <time>2014-01-12T09:29:17.000Z</time>
      </trkpt>
      <trkpt lat="45.60159" lon="6.67229">
        <ele>1542</ele>
        <time>2014-01-12T09:29:24.000Z</time>
      </trkpt>
      <trkpt lat="45.60163" lon="6.67234">
        <ele>1543</ele>
        <time>2014-01-12T09:29:30.000Z</time>
      </trkpt>
      <trkpt lat="45.60167" lon="6.6724">
        <ele>1544</ele>
        <time>2014-01-12T09:29:37.000Z</time>
      </trkpt>
      <trkpt lat="45.60173" lon="6.67241">
        <ele>1544.8000488281</ele>
        <time>2014-01-12T09:29:43.000Z</time>
      </trkpt>
      <trkpt lat="45.60175" lon="6.67242">
        <ele>1545</ele>
        <time>2014-01-12T09:29:46.000Z</time>
      </trkpt>
      <trkpt lat="45.60178" lon="6.67244">
        <ele>1545.4000244141</ele>
        <time>2014-01-12T09:29:50.000Z</time>
      </trkpt>
      <trkpt lat="45.60181" lon="6.67246">
        <ele>1545.8000488281</ele>
        <time>2014-01-12T09:29:56.000Z</time>
      </trkpt>
      <trkpt lat="45.60183" lon="6.67247">
        <ele>1546</ele>
        <time>2014-01-12T09:29:58.000Z</time>
      </trkpt>
      <trkpt lat="45.60187" lon="6.67248">
        <ele>1546.5999755859</ele>
        <time>2014-01-12T09:30:03.000Z</time>
      </trkpt>
      <trkpt lat="45.60191" lon="6.6725">
        <ele>1546.8000488281</ele>
        <time>2014-01-12T09:30:08.000Z</time>
      </trkpt>
      <trkpt lat="45.60191" lon="6.67251">
        <ele>1547</ele>
        <time>2014-01-12T09:30:15.000Z</time>
      </trkpt>
      <trkpt lat="45.60191" lon="6.6725">
        <ele>1547</ele>
        <time>2014-01-12T09:30:25.000Z</time>
      </trkpt>
      <trkpt lat="45.60196" lon="6.67252">
        <ele>1547.5999755859</ele>
        <time>2014-01-12T09:30:46.000Z</time>
      </trkpt>
      <trkpt lat="45.60201" lon="6.67255">
        <ele>1548</ele>
        <time>2014-01-12T09:30:52.000Z</time>
      </trkpt>
      <trkpt lat="45.60206" lon="6.67257">
        <ele>1548.4000244141</ele>
        <time>2014-01-12T09:30:58.000Z</time>
      </trkpt>
      <trkpt lat="45.60211" lon="6.67258">
        <ele>1549</ele>
        <time>2014-01-12T09:31:04.000Z</time>
      </trkpt>
      <trkpt lat="45.60217" lon="6.6726">
        <ele>1549.4000244141</ele>
        <time>2014-01-12T09:31:10.000Z</time>
      </trkpt>
      <trkpt lat="45.60221" lon="6.67261">
        <ele>1549.8000488281</ele>
        <time>2014-01-12T09:31:15.000Z</time>
      </trkpt>
      <trkpt lat="45.60225" lon="6.67262">
        <ele>1550.1999511719</ele>
        <time>2014-01-12T09:31:20.000Z</time>
      </trkpt>
      <trkpt lat="45.6023" lon="6.67263">
        <ele>1550.5999755859</ele>
        <time>2014-01-12T09:31:26.000Z</time>
      </trkpt>
      <trkpt lat="45.60235" lon="6.67265">
        <ele>1550.8000488281</ele>
        <time>2014-01-12T09:31:32.000Z</time>
      </trkpt>
      <trkpt lat="45.6024" lon="6.67266">
        <ele>1551.1999511719</ele>
        <time>2014-01-12T09:31:38.000Z</time>
      </trkpt>
      <trkpt lat="45.60244" lon="6.67268">
        <ele>1551.4000244141</ele>
        <time>2014-01-12T09:31:45.000Z</time>
      </trkpt>
      <trkpt lat="45.60249" lon="6.67271">
        <ele>1551.4000244141</ele>
        <time>2014-01-12T09:31:52.000Z</time>
      </trkpt>
      <trkpt lat="45.60257" lon="6.67272">
        <ele>1552.8000488281</ele>
        <time>2014-01-12T09:32:00.000Z</time>
      </trkpt>
      <trkpt lat="45.60263" lon="6.67274">
        <ele>1554</ele>
        <time>2014-01-12T09:32:06.000Z</time>
      </trkpt>
      <trkpt lat="45.60268" lon="6.67276">
        <ele>1555</ele>
        <time>2014-01-12T09:32:12.000Z</time>
      </trkpt>
      <trkpt lat="45.60273" lon="6.67279">
        <ele>1555.5999755859</ele>
        <time>2014-01-12T09:32:18.000Z</time>
      </trkpt>
      <trkpt lat="45.60278" lon="6.67283">
        <ele>1556.1999511719</ele>
        <time>2014-01-12T09:32:25.000Z</time>
      </trkpt>
      <trkpt lat="45.60283" lon="6.67286">
        <ele>1557</ele>
        <time>2014-01-12T09:32:32.000Z</time>
      </trkpt>
      <trkpt lat="45.60288" lon="6.6729">
        <ele>1557.5999755859</ele>
        <time>2014-01-12T09:32:38.000Z</time>
      </trkpt>
      <trkpt lat="45.60292" lon="6.67293">
        <ele>1557.8000488281</ele>
        <time>2014-01-12T09:32:44.000Z</time>
      </trkpt>
      <trkpt lat="45.60297" lon="6.67296">
        <ele>1558.4000244141</ele>
        <time>2014-01-12T09:32:50.000Z</time>
      </trkpt>
      <trkpt lat="45.603" lon="6.67298">
        <ele>1558.8000488281</ele>
        <time>2014-01-12T09:32:55.000Z</time>
      </trkpt>
      <trkpt lat="45.60306" lon="6.67299">
        <ele>1559.8000488281</ele>
        <time>2014-01-12T09:33:02.000Z</time>
      </trkpt>
      <trkpt lat="45.60313" lon="6.67299">
        <ele>1561.4000244141</ele>
        <time>2014-01-12T09:33:09.000Z</time>
      </trkpt>
      <trkpt lat="45.60318" lon="6.673">
        <ele>1562.1999511719</ele>
        <time>2014-01-12T09:33:14.000Z</time>
      </trkpt>
      <trkpt lat="45.6032" lon="6.67301">
        <ele>1562.4000244141</ele>
        <time>2014-01-12T09:33:17.000Z</time>
      </trkpt>
      <trkpt lat="45.60325" lon="6.67301">
        <ele>1563.4000244141</ele>
        <time>2014-01-12T09:33:23.000Z</time>
      </trkpt>
      <trkpt lat="45.60329" lon="6.67302">
        <ele>1564</ele>
        <time>2014-01-12T09:33:29.000Z</time>
      </trkpt>
      <trkpt lat="45.60329" lon="6.67302">
        <ele>1564</ele>
        <time>2014-01-12T09:33:36.000Z</time>
      </trkpt>
      <trkpt lat="45.60327" lon="6.673">
        <ele>1564.1999511719</ele>
        <time>2014-01-12T09:33:41.000Z</time>
      </trkpt>
      <trkpt lat="45.60326" lon="6.67294">
        <ele>1565</ele>
        <time>2014-01-12T09:33:46.000Z</time>
      </trkpt>
      <trkpt lat="45.60327" lon="6.67289">
        <ele>1566.1999511719</ele>
        <time>2014-01-12T09:33:51.000Z</time>
      </trkpt>
      <trkpt lat="45.60328" lon="6.6728">
        <ele>1568</ele>
        <time>2014-01-12T09:33:59.000Z</time>
      </trkpt>
      <trkpt lat="45.60328" lon="6.67274">
        <ele>1569.1999511719</ele>
        <time>2014-01-12T09:34:06.000Z</time>
      </trkpt>
      <trkpt lat="45.60325" lon="6.67267">
        <ele>1569.8000488281</ele>
        <time>2014-01-12T09:34:14.000Z</time>
      </trkpt>
      <trkpt lat="45.60325" lon="6.6726">
        <ele>1571</ele>
        <time>2014-01-12T09:34:21.000Z</time>
      </trkpt>
      <trkpt lat="45.60326" lon="6.67255">
        <ele>1572.1999511719</ele>
        <time>2014-01-12T09:34:27.000Z</time>
      </trkpt>
      <trkpt lat="45.60326" lon="6.67251">
        <ele>1573</ele>
        <time>2014-01-12T09:34:32.000Z</time>
      </trkpt>
      <trkpt lat="45.60327" lon="6.67248">
        <ele>1573.5999755859</ele>
        <time>2014-01-12T09:34:36.000Z</time>
      </trkpt>
      <trkpt lat="45.6033" lon="6.67246">
        <ele>1574.4000244141</ele>
        <time>2014-01-12T09:34:40.000Z</time>
      </trkpt>
      <trkpt lat="45.60334" lon="6.67247">
        <ele>1575.4000244141</ele>
        <time>2014-01-12T09:34:46.000Z</time>
      </trkpt>
      <trkpt lat="45.60339" lon="6.67248">
        <ele>1576.1999511719</ele>
        <time>2014-01-12T09:34:53.000Z</time>
      </trkpt>
      <trkpt lat="45.60343" lon="6.67248">
        <ele>1576.8000488281</ele>
        <time>2014-01-12T09:35:00.000Z</time>
      </trkpt>
      <trkpt lat="45.60345" lon="6.67249">
        <ele>1577</ele>
        <time>2014-01-12T09:35:05.000Z</time>
      </trkpt>
      <trkpt lat="45.60346" lon="6.67248">
        <ele>1577.4000244141</ele>
        <time>2014-01-12T09:35:11.000Z</time>
      </trkpt>
      <trkpt lat="45.60351" lon="6.6725">
        <ele>1577.8000488281</ele>
        <time>2014-01-12T09:35:45.000Z</time>
      </trkpt>
      <trkpt lat="45.60347" lon="6.67249">
        <ele>1577.4000244141</ele>
        <time>2014-01-12T09:36:39.000Z</time>
      </trkpt>
      <trkpt lat="45.60342" lon="6.67245">
        <ele>1577</ele>
        <time>2014-01-12T09:37:48.000Z</time>
      </trkpt>
      <trkpt lat="45.60342" lon="6.67244">
        <ele>1577</ele>
        <time>2014-01-12T09:37:55.000Z</time>
      </trkpt>
      <trkpt lat="45.60341" lon="6.67241">
        <ele>1577.1999511719</ele>
        <time>2014-01-12T09:38:21.000Z</time>
      </trkpt>
      <trkpt lat="45.6034" lon="6.67239">
        <ele>1577.1999511719</ele>
        <time>2014-01-12T09:38:22.000Z</time>
      </trkpt>
      <trkpt lat="45.60335" lon="6.6723">
        <ele>1577</ele>
        <time>2014-01-12T09:38:30.000Z</time>
      </trkpt>
      <trkpt lat="45.60329" lon="6.67219">
        <ele>1576.4000244141</ele>
        <time>2014-01-12T09:38:39.000Z</time>
      </trkpt>
      <trkpt lat="45.60326" lon="6.67208">
        <ele>1576.5999755859</ele>
        <time>2014-01-12T09:38:48.000Z</time>
      </trkpt>
      <trkpt lat="45.60326" lon="6.67198">
        <ele>1577.4000244141</ele>
        <time>2014-01-12T09:38:55.000Z</time>
      </trkpt>
      <trkpt lat="45.60325" lon="6.67193">
        <ele>1577.8000488281</ele>
        <time>2014-01-12T09:38:59.000Z</time>
      </trkpt>
      <trkpt lat="45.60326" lon="6.67185">
        <ele>1578.5999755859</ele>
        <time>2014-01-12T09:39:05.000Z</time>
      </trkpt>
      <trkpt lat="45.60327" lon="6.67177">
        <ele>1579.5999755859</ele>
        <time>2014-01-12T09:39:12.000Z</time>
      </trkpt>
      <trkpt lat="45.60328" lon="6.67173">
        <ele>1580</ele>
        <time>2014-01-12T09:39:15.000Z</time>
      </trkpt>
      <trkpt lat="45.60329" lon="6.67165">
        <ele>1581.1999511719</ele>
        <time>2014-01-12T09:39:22.000Z</time>
      </trkpt>
      <trkpt lat="45.6033" lon="6.67157">
        <ele>1582.8000488281</ele>
        <time>2014-01-12T09:39:29.000Z</time>
      </trkpt>
      <trkpt lat="45.60331" lon="6.6715">
        <ele>1584.4000244141</ele>
        <time>2014-01-12T09:39:35.000Z</time>
      </trkpt>
      <trkpt lat="45.60332" lon="6.67142">
        <ele>1585.8000488281</ele>
        <time>2014-01-12T09:39:42.000Z</time>
      </trkpt>
      <trkpt lat="45.60332" lon="6.67134">
        <ele>1587.1999511719</ele>
        <time>2014-01-12T09:39:49.000Z</time>
      </trkpt>
      <trkpt lat="45.60332" lon="6.67124">
        <ele>1588.5999755859</ele>
        <time>2014-01-12T09:39:57.000Z</time>
      </trkpt>
      <trkpt lat="45.6033" lon="6.67115">
        <ele>1589.5999755859</ele>
        <time>2014-01-12T09:40:05.000Z</time>
      </trkpt>
      <trkpt lat="45.60329" lon="6.67111">
        <ele>1590</ele>
        <time>2014-01-12T09:40:11.000Z</time>
      </trkpt>
      <trkpt lat="45.60326" lon="6.67105">
        <ele>1590</ele>
        <time>2014-01-12T09:41:37.000Z</time>
      </trkpt>
      <trkpt lat="45.60324" lon="6.67098">
        <ele>1590.5999755859</ele>
        <time>2014-01-12T09:41:43.000Z</time>
      </trkpt>
      <trkpt lat="45.60321" lon="6.67091">
        <ele>1590.8000488281</ele>
        <time>2014-01-12T09:41:49.000Z</time>
      </trkpt>
      <trkpt lat="45.60318" lon="6.67082">
        <ele>1591.1999511719</ele>
        <time>2014-01-12T09:41:56.000Z</time>
      </trkpt>
      <trkpt lat="45.60315" lon="6.67076">
        <ele>1592.8000488281</ele>
        <time>2014-01-12T09:42:02.000Z</time>
      </trkpt>
      <trkpt lat="45.6031" lon="6.67066">
        <ele>1595.1999511719</ele>
        <time>2014-01-12T09:42:12.000Z</time>
      </trkpt>
      <trkpt lat="45.6031" lon="6.67064">
        <ele>1595.5999755859</ele>
        <time>2014-01-12T09:42:18.000Z</time>
      </trkpt>
      <trkpt lat="45.60313" lon="6.67069">
        <ele>1595</ele>
        <time>2014-01-12T09:44:17.000Z</time>
      </trkpt>
      <trkpt lat="45.60309" lon="6.67061">
        <ele>1596.8000488281</ele>
        <time>2014-01-12T09:44:24.000Z</time>
      </trkpt>
      <trkpt lat="45.60303" lon="6.6705">
        <ele>1599.1999511719</ele>
        <time>2014-01-12T09:44:33.000Z</time>
      </trkpt>
      <trkpt lat="45.60301" lon="6.67048">
        <ele>1599.4000244141</ele>
        <time>2014-01-12T09:44:35.000Z</time>
      </trkpt>
      <trkpt lat="45.60298" lon="6.67042">
        <ele>1600.5999755859</ele>
        <time>2014-01-12T09:44:40.000Z</time>
      </trkpt>
      <trkpt lat="45.60294" lon="6.67035">
        <ele>1602.4000244141</ele>
        <time>2014-01-12T09:44:47.000Z</time>
      </trkpt>
      <trkpt lat="45.60291" lon="6.6703">
        <ele>1603.1999511719</ele>
        <time>2014-01-12T09:44:54.000Z</time>
      </trkpt>
      <trkpt lat="45.60285" lon="6.67025">
        <ele>1603.1999511719</ele>
        <time>2014-01-12T09:45:01.000Z</time>
      </trkpt>
      <trkpt lat="45.6028" lon="6.67021">
        <ele>1603</ele>
        <time>2014-01-12T09:45:06.000Z</time>
      </trkpt>
      <trkpt lat="45.60276" lon="6.67013">
        <ele>1604.8000488281</ele>
        <time>2014-01-12T09:45:12.000Z</time>
      </trkpt>
      <trkpt lat="45.60271" lon="6.67005">
        <ele>1606.4000244141</ele>
        <time>2014-01-12T09:45:18.000Z</time>
      </trkpt>
      <trkpt lat="45.60267" lon="6.67">
        <ele>1607</ele>
        <time>2014-01-12T09:45:23.000Z</time>
      </trkpt>
      <trkpt lat="45.60263" lon="6.66993">
        <ele>1607.5999755859</ele>
        <time>2014-01-12T09:45:29.000Z</time>
      </trkpt>
      <trkpt lat="45.60258" lon="6.66986">
        <ele>1607.8000488281</ele>
        <time>2014-01-12T09:45:37.000Z</time>
      </trkpt>
      <trkpt lat="45.60257" lon="6.66985">
        <ele>1607.8000488281</ele>
        <time>2014-01-12T09:45:38.000Z</time>
      </trkpt>
      <trkpt lat="45.60252" lon="6.66977">
        <ele>1608.4000244141</ele>
        <time>2014-01-12T09:45:46.000Z</time>
      </trkpt>
      <trkpt lat="45.6025" lon="6.66969">
        <ele>1609.5999755859</ele>
        <time>2014-01-12T09:45:52.000Z</time>
      </trkpt>
      <trkpt lat="45.60247" lon="6.66962">
        <ele>1610.1999511719</ele>
        <time>2014-01-12T09:45:59.000Z</time>
      </trkpt>
      <trkpt lat="45.60244" lon="6.66955">
        <ele>1611</ele>
        <time>2014-01-12T09:46:06.000Z</time>
      </trkpt>
      <trkpt lat="45.60243" lon="6.66951">
        <ele>1611.5999755859</ele>
        <time>2014-01-12T09:46:09.000Z</time>
      </trkpt>
      <trkpt lat="45.60238" lon="6.66941">
        <ele>1612.4000244141</ele>
        <time>2014-01-12T09:46:18.000Z</time>
      </trkpt>
      <trkpt lat="45.60233" lon="6.66931">
        <ele>1612.8000488281</ele>
        <time>2014-01-12T09:46:26.000Z</time>
      </trkpt>
      <trkpt lat="45.60228" lon="6.66922">
        <ele>1613.4000244141</ele>
        <time>2014-01-12T09:46:34.000Z</time>
      </trkpt>
      <trkpt lat="45.60223" lon="6.66915">
        <ele>1613.4000244141</ele>
        <time>2014-01-12T09:46:40.000Z</time>
      </trkpt>
      <trkpt lat="45.60218" lon="6.66907">
        <ele>1614.1999511719</ele>
        <time>2014-01-12T09:46:48.000Z</time>
      </trkpt>
      <trkpt lat="45.60213" lon="6.66899">
        <ele>1615.1999511719</ele>
        <time>2014-01-12T09:46:55.000Z</time>
      </trkpt>
      <trkpt lat="45.60209" lon="6.66893">
        <ele>1615.8000488281</ele>
        <time>2014-01-12T09:47:01.000Z</time>
      </trkpt>
      <trkpt lat="45.60205" lon="6.66887">
        <ele>1616.5999755859</ele>
        <time>2014-01-12T09:47:07.000Z</time>
      </trkpt>
      <trkpt lat="45.602" lon="6.6688">
        <ele>1617.4000244141</ele>
        <time>2014-01-12T09:47:14.000Z</time>
      </trkpt>
      <trkpt lat="45.60195" lon="6.66872">
        <ele>1618.4000244141</ele>
        <time>2014-01-12T09:47:21.000Z</time>
      </trkpt>
      <trkpt lat="45.60191" lon="6.66866">
        <ele>1619</ele>
        <time>2014-01-12T09:47:28.000Z</time>
      </trkpt>
      <trkpt lat="45.60188" lon="6.66864">
        <ele>1619</ele>
        <time>2014-01-12T09:47:31.000Z</time>
      </trkpt>
      <trkpt lat="45.60186" lon="6.66861">
        <ele>1619.1999511719</ele>
        <time>2014-01-12T09:47:34.000Z</time>
      </trkpt>
      <trkpt lat="45.60181" lon="6.66853">
        <ele>1620.4000244141</ele>
        <time>2014-01-12T09:47:42.000Z</time>
      </trkpt>
      <trkpt lat="45.60176" lon="6.66847">
        <ele>1621</ele>
        <time>2014-01-12T09:47:50.000Z</time>
      </trkpt>
      <trkpt lat="45.6017" lon="6.66839">
        <ele>1621.5999755859</ele>
        <time>2014-01-12T09:47:59.000Z</time>
      </trkpt>
      <trkpt lat="45.60164" lon="6.66832">
        <ele>1622.1999511719</ele>
        <time>2014-01-12T09:48:07.000Z</time>
      </trkpt>
      <trkpt lat="45.60159" lon="6.66826">
        <ele>1621.8000488281</ele>
        <time>2014-01-12T09:48:15.000Z</time>
      </trkpt>
      <trkpt lat="45.60153" lon="6.6682">
        <ele>1621.8000488281</ele>
        <time>2014-01-12T09:48:24.000Z</time>
      </trkpt>
      <trkpt lat="45.60148" lon="6.66814">
        <ele>1622</ele>
        <time>2014-01-12T09:48:31.000Z</time>
      </trkpt>
      <trkpt lat="45.60144" lon="6.66807">
        <ele>1622.1999511719</ele>
        <time>2014-01-12T09:48:39.000Z</time>
      </trkpt>
      <trkpt lat="45.60139" lon="6.66801">
        <ele>1622.4000244141</ele>
        <time>2014-01-12T09:48:47.000Z</time>
      </trkpt>
      <trkpt lat="45.60134" lon="6.66794">
        <ele>1622.5999755859</ele>
        <time>2014-01-12T09:48:55.000Z</time>
      </trkpt>
      <trkpt lat="45.60129" lon="6.66788">
        <ele>1622.8000488281</ele>
        <time>2014-01-12T09:49:02.000Z</time>
      </trkpt>
      <trkpt lat="45.60123" lon="6.66781">
        <ele>1622.8000488281</ele>
        <time>2014-01-12T09:49:09.000Z</time>
      </trkpt>
      <trkpt lat="45.60119" lon="6.66774">
        <ele>1623.4000244141</ele>
        <time>2014-01-12T09:49:17.000Z</time>
      </trkpt>
      <trkpt lat="45.60114" lon="6.66767">
        <ele>1623.8000488281</ele>
        <time>2014-01-12T09:49:25.000Z</time>
      </trkpt>
      <trkpt lat="45.6011" lon="6.66761">
        <ele>1624.5999755859</ele>
        <time>2014-01-12T09:49:32.000Z</time>
      </trkpt>
      <trkpt lat="45.60107" lon="6.66754">
        <ele>1625.4000244141</ele>
        <time>2014-01-12T09:49:40.000Z</time>
      </trkpt>
      <trkpt lat="45.60103" lon="6.66747">
        <ele>1626.1999511719</ele>
        <time>2014-01-12T09:49:47.000Z</time>
      </trkpt>
      <trkpt lat="45.60102" lon="6.66745">
        <ele>1626.4000244141</ele>
        <time>2014-01-12T09:49:49.000Z</time>
      </trkpt>
      <trkpt lat="45.60098" lon="6.66735">
        <ele>1627.5999755859</ele>
        <time>2014-01-12T09:49:58.000Z</time>
      </trkpt>
      <trkpt lat="45.60096" lon="6.6673">
        <ele>1628.4000244141</ele>
        <time>2014-01-12T09:50:03.000Z</time>
      </trkpt>
      <trkpt lat="45.60094" lon="6.66723">
        <ele>1629.5999755859</ele>
        <time>2014-01-12T09:50:10.000Z</time>
      </trkpt>
      <trkpt lat="45.60091" lon="6.66716">
        <ele>1630.1999511719</ele>
        <time>2014-01-12T09:50:16.000Z</time>
      </trkpt>
      <trkpt lat="45.60088" lon="6.6671">
        <ele>1631</ele>
        <time>2014-01-12T09:50:23.000Z</time>
      </trkpt>
      <trkpt lat="45.60084" lon="6.66702">
        <ele>1631.1999511719</ele>
        <time>2014-01-12T09:50:31.000Z</time>
      </trkpt>
      <trkpt lat="45.60081" lon="6.66696">
        <ele>1631.8000488281</ele>
        <time>2014-01-12T09:50:38.000Z</time>
      </trkpt>
      <trkpt lat="45.60077" lon="6.66689">
        <ele>1632.4000244141</ele>
        <time>2014-01-12T09:50:44.000Z</time>
      </trkpt>
      <trkpt lat="45.60074" lon="6.66684">
        <ele>1632.8000488281</ele>
        <time>2014-01-12T09:50:49.000Z</time>
      </trkpt>
      <trkpt lat="45.60073" lon="6.66682">
        <ele>1632.8000488281</ele>
        <time>2014-01-12T09:50:51.000Z</time>
      </trkpt>
      <trkpt lat="45.60069" lon="6.66675">
        <ele>1633.1999511719</ele>
        <time>2014-01-12T09:50:58.000Z</time>
      </trkpt>
      <trkpt lat="45.60066" lon="6.6667">
        <ele>1633.4000244141</ele>
        <time>2014-01-12T09:51:03.000Z</time>
      </trkpt>
      <trkpt lat="45.60062" lon="6.66664">
        <ele>1633.4000244141</ele>
        <time>2014-01-12T09:51:09.000Z</time>
      </trkpt>
      <trkpt lat="45.60059" lon="6.66661">
        <ele>1633</ele>
        <time>2014-01-12T09:51:15.000Z</time>
      </trkpt>
      <trkpt lat="45.60054" lon="6.66658">
        <ele>1632</ele>
        <time>2014-01-12T09:51:21.000Z</time>
      </trkpt>
      <trkpt lat="45.6005" lon="6.66654">
        <ele>1631.1999511719</ele>
        <time>2014-01-12T09:51:28.000Z</time>
      </trkpt>
      <trkpt lat="45.60046" lon="6.66646">
        <ele>1631.5999755859</ele>
        <time>2014-01-12T09:51:34.000Z</time>
      </trkpt>
      <trkpt lat="45.60043" lon="6.66639">
        <ele>1632.1999511719</ele>
        <time>2014-01-12T09:51:40.000Z</time>
      </trkpt>
      <trkpt lat="45.6004" lon="6.66631">
        <ele>1633.4000244141</ele>
        <time>2014-01-12T09:51:47.000Z</time>
      </trkpt>
      <trkpt lat="45.6004" lon="6.66629">
        <ele>1633.4000244141</ele>
        <time>2014-01-12T09:51:48.000Z</time>
      </trkpt>
      <trkpt lat="45.60037" lon="6.66621">
        <ele>1634.5999755859</ele>
        <time>2014-01-12T09:51:55.000Z</time>
      </trkpt>
      <trkpt lat="45.60037" lon="6.6662">
        <ele>1634.8000488281</ele>
        <time>2014-01-12T09:51:56.000Z</time>
      </trkpt>
      <trkpt lat="45.60035" lon="6.66611">
        <ele>1636.1999511719</ele>
        <time>2014-01-12T09:52:03.000Z</time>
      </trkpt>
      <trkpt lat="45.60033" lon="6.66603">
        <ele>1637</ele>
        <time>2014-01-12T09:52:09.000Z</time>
      </trkpt>
      <trkpt lat="45.60029" lon="6.66597">
        <ele>1636.8000488281</ele>
        <time>2014-01-12T09:52:16.000Z</time>
      </trkpt>
      <trkpt lat="45.60027" lon="6.6659">
        <ele>1637.8000488281</ele>
        <time>2014-01-12T09:52:22.000Z</time>
      </trkpt>
      <trkpt lat="45.60025" lon="6.66582">
        <ele>1638.4000244141</ele>
        <time>2014-01-12T09:52:29.000Z</time>
      </trkpt>
      <trkpt lat="45.60021" lon="6.66574">
        <ele>1638.8000488281</ele>
        <time>2014-01-12T09:52:38.000Z</time>
      </trkpt>
      <trkpt lat="45.60018" lon="6.66567">
        <ele>1638.5999755859</ele>
        <time>2014-01-12T09:52:45.000Z</time>
      </trkpt>
      <trkpt lat="45.60014" lon="6.6656">
        <ele>1638</ele>
        <time>2014-01-12T09:52:52.000Z</time>
      </trkpt>
      <trkpt lat="45.60009" lon="6.66553">
        <ele>1637.1999511719</ele>
        <time>2014-01-12T09:52:59.000Z</time>
      </trkpt>
      <trkpt lat="45.60006" lon="6.66542">
        <ele>1638</ele>
        <time>2014-01-12T09:53:08.000Z</time>
      </trkpt>
      <trkpt lat="45.60004" lon="6.66535">
        <ele>1638.4000244141</ele>
        <time>2014-01-12T09:53:14.000Z</time>
      </trkpt>
      <trkpt lat="45.60002" lon="6.66526">
        <ele>1639.1999511719</ele>
        <time>2014-01-12T09:53:21.000Z</time>
      </trkpt>
      <trkpt lat="45.60002" lon="6.66518">
        <ele>1640.8000488281</ele>
        <time>2014-01-12T09:53:27.000Z</time>
      </trkpt>
      <trkpt lat="45.60001" lon="6.66509">
        <ele>1642.8000488281</ele>
        <time>2014-01-12T09:53:34.000Z</time>
      </trkpt>
      <trkpt lat="45.60002" lon="6.66505">
        <ele>1643.8000488281</ele>
        <time>2014-01-12T09:53:37.000Z</time>
      </trkpt>
      <trkpt lat="45.60001" lon="6.66497">
        <ele>1644.5999755859</ele>
        <time>2014-01-12T09:53:43.000Z</time>
      </trkpt>
      <trkpt lat="45.6" lon="6.66488">
        <ele>1645</ele>
        <time>2014-01-12T09:53:50.000Z</time>
      </trkpt>
      <trkpt lat="45.6" lon="6.66485">
        <ele>1645.1999511719</ele>
        <time>2014-01-12T09:53:52.000Z</time>
      </trkpt>
      <trkpt lat="45.6" lon="6.66481">
        <ele>1645.4000244141</ele>
        <time>2014-01-12T09:53:56.000Z</time>
      </trkpt>
      <trkpt lat="45.59999" lon="6.66473">
        <ele>1645.5999755859</ele>
        <time>2014-01-12T09:54:03.000Z</time>
      </trkpt>
      <trkpt lat="45.59998" lon="6.66471">
        <ele>1645.4000244141</ele>
        <time>2014-01-12T09:54:05.000Z</time>
      </trkpt>
      <trkpt lat="45.59996" lon="6.66463">
        <ele>1644.8000488281</ele>
        <time>2014-01-12T09:54:12.000Z</time>
      </trkpt>
      <trkpt lat="45.59995" lon="6.66461">
        <ele>1644.4000244141</ele>
        <time>2014-01-12T09:54:19.000Z</time>
      </trkpt>
      <trkpt lat="45.59995" lon="6.66462">
        <ele>1644.4000244141</ele>
        <time>2014-01-12T09:54:40.000Z</time>
      </trkpt>
      <trkpt lat="45.59994" lon="6.66462">
        <ele>1644.1999511719</ele>
        <time>2014-01-12T09:54:52.000Z</time>
      </trkpt>
      <trkpt lat="45.59993" lon="6.66456">
        <ele>1644.1999511719</ele>
        <time>2014-01-12T09:55:02.000Z</time>
      </trkpt>
      <trkpt lat="45.5999" lon="6.66453">
        <ele>1643.1999511719</ele>
        <time>2014-01-12T09:56:45.000Z</time>
      </trkpt>
      <trkpt lat="45.59983" lon="6.66448">
        <ele>1640.5999755859</ele>
        <time>2014-01-12T09:57:38.000Z</time>
      </trkpt>
      <trkpt lat="45.59989" lon="6.66454">
        <ele>1642.8000488281</ele>
        <time>2014-01-12T09:58:12.000Z</time>
      </trkpt>
      <trkpt lat="45.5999" lon="6.66454">
        <ele>1642.8000488281</ele>
        <time>2014-01-12T09:58:14.000Z</time>
      </trkpt>
      <trkpt lat="45.5999" lon="6.66456">
        <ele>1643</ele>
        <time>2014-01-12T09:58:21.000Z</time>
      </trkpt>
      <trkpt lat="45.5999" lon="6.66453">
        <ele>1643</ele>
        <time>2014-01-12T09:58:30.000Z</time>
      </trkpt>
      <trkpt lat="45.59989" lon="6.66451">
        <ele>1642.8000488281</ele>
        <time>2014-01-12T09:58:39.000Z</time>
      </trkpt>
      <trkpt lat="45.59986" lon="6.66452">
        <ele>1641.4000244141</ele>
        <time>2014-01-12T10:00:29.000Z</time>
      </trkpt>
      <trkpt lat="45.59998" lon="6.66455">
        <ele>1646.5999755859</ele>
        <time>2014-01-12T10:01:29.000Z</time>
      </trkpt>
      <trkpt lat="45.59998" lon="6.66454">
        <ele>1646.4000244141</ele>
        <time>2014-01-12T10:03:55.000Z</time>
      </trkpt>
      <trkpt lat="45.60001" lon="6.66454">
        <ele>1648</ele>
        <time>2014-01-12T10:04:02.000Z</time>
      </trkpt>
      <trkpt lat="45.6" lon="6.66453">
        <ele>1647.5999755859</ele>
        <time>2014-01-12T10:04:36.000Z</time>
      </trkpt>
      <trkpt lat="45.59995" lon="6.66448">
        <ele>1645.5999755859</ele>
        <time>2014-01-12T10:05:35.000Z</time>
      </trkpt>
      <trkpt lat="45.59996" lon="6.66445">
        <ele>1646.1999511719</ele>
        <time>2014-01-12T10:05:38.000Z</time>
      </trkpt>
      <trkpt lat="45.59997" lon="6.66438">
        <ele>1647.5999755859</ele>
        <time>2014-01-12T10:05:47.000Z</time>
      </trkpt>
      <trkpt lat="45.59999" lon="6.66429">
        <ele>1648.5999755859</ele>
        <time>2014-01-12T10:05:56.000Z</time>
      </trkpt>
      <trkpt lat="45.59999" lon="6.66426">
        <ele>1648.8000488281</ele>
        <time>2014-01-12T10:06:00.000Z</time>
      </trkpt>
      <trkpt lat="45.6" lon="6.6642">
        <ele>1649.5999755859</ele>
        <time>2014-01-12T10:06:05.000Z</time>
      </trkpt>
      <trkpt lat="45.59999" lon="6.66414">
        <ele>1649.8000488281</ele>
        <time>2014-01-12T10:06:11.000Z</time>
      </trkpt>
      <trkpt lat="45.59999" lon="6.66405">
        <ele>1650.1999511719</ele>
        <time>2014-01-12T10:06:18.000Z</time>
      </trkpt>
      <trkpt lat="45.59996" lon="6.66396">
        <ele>1649.8000488281</ele>
        <time>2014-01-12T10:06:26.000Z</time>
      </trkpt>
      <trkpt lat="45.59994" lon="6.66388">
        <ele>1649.5999755859</ele>
        <time>2014-01-12T10:06:35.000Z</time>
      </trkpt>
      <trkpt lat="45.59993" lon="6.66381">
        <ele>1650</ele>
        <time>2014-01-12T10:06:41.000Z</time>
      </trkpt>
      <trkpt lat="45.59993" lon="6.66377">
        <ele>1650</ele>
        <time>2014-01-12T10:06:45.000Z</time>
      </trkpt>
      <trkpt lat="45.59993" lon="6.66371">
        <ele>1650.5999755859</ele>
        <time>2014-01-12T10:06:51.000Z</time>
      </trkpt>
      <trkpt lat="45.59992" lon="6.66365">
        <ele>1650.5999755859</ele>
        <time>2014-01-12T10:07:00.000Z</time>
      </trkpt>
      <trkpt lat="45.59992" lon="6.66364">
        <ele>1650.5999755859</ele>
        <time>2014-01-12T10:07:01.000Z</time>
      </trkpt>
      <trkpt lat="45.59992" lon="6.66352">
        <ele>1651.4000244141</ele>
        <time>2014-01-12T10:07:12.000Z</time>
      </trkpt>
      <trkpt lat="45.59993" lon="6.66345">
        <ele>1652</ele>
        <time>2014-01-12T10:07:18.000Z</time>
      </trkpt>
      <trkpt lat="45.59993" lon="6.66337">
        <ele>1652.5999755859</ele>
        <time>2014-01-12T10:07:25.000Z</time>
      </trkpt>
      <trkpt lat="45.59992" lon="6.66329">
        <ele>1653.4000244141</ele>
        <time>2014-01-12T10:07:34.000Z</time>
      </trkpt>
      <trkpt lat="45.59991" lon="6.66322">
        <ele>1654</ele>
        <time>2014-01-12T10:07:41.000Z</time>
      </trkpt>
      <trkpt lat="45.5999" lon="6.66312">
        <ele>1655.4000244141</ele>
        <time>2014-01-12T10:07:50.000Z</time>
      </trkpt>
      <trkpt lat="45.5999" lon="6.66304">
        <ele>1656.5999755859</ele>
        <time>2014-01-12T10:07:58.000Z</time>
      </trkpt>
      <trkpt lat="45.5999" lon="6.66295">
        <ele>1657.8000488281</ele>
        <time>2014-01-12T10:08:06.000Z</time>
      </trkpt>
      <trkpt lat="45.59989" lon="6.66288">
        <ele>1658.5999755859</ele>
        <time>2014-01-12T10:08:12.000Z</time>
      </trkpt>
      <trkpt lat="45.5999" lon="6.66281">
        <ele>1659.8000488281</ele>
        <time>2014-01-12T10:08:20.000Z</time>
      </trkpt>
      <trkpt lat="45.59991" lon="6.66276">
        <ele>1660.5999755859</ele>
        <time>2014-01-12T10:08:27.000Z</time>
      </trkpt>
      <trkpt lat="45.59993" lon="6.66272">
        <ele>1661.1999511719</ele>
        <time>2014-01-12T10:08:34.000Z</time>
      </trkpt>
      <trkpt lat="45.59994" lon="6.6627">
        <ele>1661.4000244141</ele>
        <time>2014-01-12T10:08:38.000Z</time>
      </trkpt>
      <trkpt lat="45.59994" lon="6.66267">
        <ele>1661.8000488281</ele>
        <time>2014-01-12T10:08:43.000Z</time>
      </trkpt>
      <trkpt lat="45.59994" lon="6.66265">
        <ele>1662.1999511719</ele>
        <time>2014-01-12T10:08:48.000Z</time>
      </trkpt>
      <trkpt lat="45.59995" lon="6.66262">
        <ele>1662.5999755859</ele>
        <time>2014-01-12T10:08:54.000Z</time>
      </trkpt>
      <trkpt lat="45.59995" lon="6.66258">
        <ele>1663</ele>
        <time>2014-01-12T10:09:01.000Z</time>
      </trkpt>
      <trkpt lat="45.59995" lon="6.66256">
        <ele>1663.4000244141</ele>
        <time>2014-01-12T10:09:06.000Z</time>
      </trkpt>
      <trkpt lat="45.59996" lon="6.66253">
        <ele>1663.8000488281</ele>
        <time>2014-01-12T10:09:11.000Z</time>
      </trkpt>
      <trkpt lat="45.59997" lon="6.6625">
        <ele>1664.1999511719</ele>
        <time>2014-01-12T10:09:17.000Z</time>
      </trkpt>
      <trkpt lat="45.59997" lon="6.66247">
        <ele>1664.8000488281</ele>
        <time>2014-01-12T10:09:21.000Z</time>
      </trkpt>
      <trkpt lat="45.59998" lon="6.66243">
        <ele>1665.5999755859</ele>
        <time>2014-01-12T10:09:28.000Z</time>
      </trkpt>
      <trkpt lat="45.59999" lon="6.66239">
        <ele>1666.1999511719</ele>
        <time>2014-01-12T10:09:33.000Z</time>
      </trkpt>
      <trkpt lat="45.59999" lon="6.66236">
        <ele>1666.8000488281</ele>
        <time>2014-01-12T10:09:38.000Z</time>
      </trkpt>
      <trkpt lat="45.6" lon="6.66233">
        <ele>1667.4000244141</ele>
        <time>2014-01-12T10:09:43.000Z</time>
      </trkpt>
      <trkpt lat="45.60001" lon="6.66232">
        <ele>1668.1999511719</ele>
        <time>2014-01-12T10:09:47.000Z</time>
      </trkpt>
      <trkpt lat="45.60004" lon="6.66234">
        <ele>1668.8000488281</ele>
        <time>2014-01-12T10:09:53.000Z</time>
      </trkpt>
      <trkpt lat="45.60006" lon="6.66237">
        <ele>1669.1999511719</ele>
        <time>2014-01-12T10:09:57.000Z</time>
      </trkpt>
      <trkpt lat="45.60009" lon="6.6624">
        <ele>1669.5999755859</ele>
        <time>2014-01-12T10:10:02.000Z</time>
      </trkpt>
      <trkpt lat="45.60011" lon="6.6624">
        <ele>1670.5999755859</ele>
        <time>2014-01-12T10:10:08.000Z</time>
      </trkpt>
      <trkpt lat="45.60016" lon="6.66241">
        <ele>1672.4000244141</ele>
        <time>2014-01-12T10:10:21.000Z</time>
      </trkpt>
      <trkpt lat="45.60018" lon="6.6624">
        <ele>1673.1999511719</ele>
        <time>2014-01-12T10:10:25.000Z</time>
      </trkpt>
      <trkpt lat="45.6002" lon="6.66242">
        <ele>1673.5999755859</ele>
        <time>2014-01-12T10:10:29.000Z</time>
      </trkpt>
      <trkpt lat="45.60025" lon="6.66246">
        <ele>1675.1999511719</ele>
        <time>2014-01-12T10:10:37.000Z</time>
      </trkpt>
      <trkpt lat="45.60027" lon="6.66249">
        <ele>1675.4000244141</ele>
        <time>2014-01-12T10:10:40.000Z</time>
      </trkpt>
      <trkpt lat="45.60031" lon="6.66256">
        <ele>1676.8000488281</ele>
        <time>2014-01-12T10:10:47.000Z</time>
      </trkpt>
      <trkpt lat="45.60033" lon="6.66261">
        <ele>1677.4000244141</ele>
        <time>2014-01-12T10:10:52.000Z</time>
      </trkpt>
      <trkpt lat="45.60035" lon="6.66266">
        <ele>1677.8000488281</ele>
        <time>2014-01-12T10:10:57.000Z</time>
      </trkpt>
      <trkpt lat="45.60036" lon="6.66272">
        <ele>1678</ele>
        <time>2014-01-12T10:11:03.000Z</time>
      </trkpt>
      <trkpt lat="45.60038" lon="6.66277">
        <ele>1678.4000244141</ele>
        <time>2014-01-12T10:11:09.000Z</time>
      </trkpt>
      <trkpt lat="45.60039" lon="6.66281">
        <ele>1678.8000488281</ele>
        <time>2014-01-12T10:11:13.000Z</time>
      </trkpt>
      <trkpt lat="45.60041" lon="6.66287">
        <ele>1679.5999755859</ele>
        <time>2014-01-12T10:11:20.000Z</time>
      </trkpt>
      <trkpt lat="45.60043" lon="6.66294">
        <ele>1679.8000488281</ele>
        <time>2014-01-12T10:11:27.000Z</time>
      </trkpt>
      <trkpt lat="45.60045" lon="6.66299">
        <ele>1680.8000488281</ele>
        <time>2014-01-12T10:11:33.000Z</time>
      </trkpt>
      <trkpt lat="45.60047" lon="6.66305">
        <ele>1681.5999755859</ele>
        <time>2014-01-12T10:11:39.000Z</time>
      </trkpt>
      <trkpt lat="45.6005" lon="6.66313">
        <ele>1683</ele>
        <time>2014-01-12T10:11:48.000Z</time>
      </trkpt>
      <trkpt lat="45.60053" lon="6.6632">
        <ele>1684.1999511719</ele>
        <time>2014-01-12T10:11:56.000Z</time>
      </trkpt>
      <trkpt lat="45.60054" lon="6.66325">
        <ele>1684.8000488281</ele>
        <time>2014-01-12T10:12:02.000Z</time>
      </trkpt>
      <trkpt lat="45.60055" lon="6.6633">
        <ele>1685.4000244141</ele>
        <time>2014-01-12T10:12:07.000Z</time>
      </trkpt>
      <trkpt lat="45.60057" lon="6.66337">
        <ele>1686</ele>
        <time>2014-01-12T10:12:14.000Z</time>
      </trkpt>
      <trkpt lat="45.60058" lon="6.6634">
        <ele>1686.8000488281</ele>
        <time>2014-01-12T10:12:18.000Z</time>
      </trkpt>
      <trkpt lat="45.60059" lon="6.66345">
        <ele>1687.4000244141</ele>
        <time>2014-01-12T10:12:23.000Z</time>
      </trkpt>
      <trkpt lat="45.60062" lon="6.66351">
        <ele>1689</ele>
        <time>2014-01-12T10:12:29.000Z</time>
      </trkpt>
      <trkpt lat="45.60062" lon="6.66357">
        <ele>1689.4000244141</ele>
        <time>2014-01-12T10:12:34.000Z</time>
      </trkpt>
      <trkpt lat="45.60063" lon="6.6636">
        <ele>1689.5999755859</ele>
        <time>2014-01-12T10:12:37.000Z</time>
      </trkpt>
      <trkpt lat="45.60063" lon="6.66365">
        <ele>1689.8000488281</ele>
        <time>2014-01-12T10:12:41.000Z</time>
      </trkpt>
      <trkpt lat="45.60062" lon="6.66369">
        <ele>1689.5999755859</ele>
        <time>2014-01-12T10:12:45.000Z</time>
      </trkpt>
      <trkpt lat="45.60062" lon="6.66375">
        <ele>1689.8000488281</ele>
        <time>2014-01-12T10:12:51.000Z</time>
      </trkpt>
      <trkpt lat="45.60063" lon="6.66381">
        <ele>1690</ele>
        <time>2014-01-12T10:12:57.000Z</time>
      </trkpt>
      <trkpt lat="45.60063" lon="6.66386">
        <ele>1690.1999511719</ele>
        <time>2014-01-12T10:13:02.000Z</time>
      </trkpt>
      <trkpt lat="45.60063" lon="6.66393">
        <ele>1690.5999755859</ele>
        <time>2014-01-12T10:13:09.000Z</time>
      </trkpt>
      <trkpt lat="45.60063" lon="6.66397">
        <ele>1690.5999755859</ele>
        <time>2014-01-12T10:13:14.000Z</time>
      </trkpt>
      <trkpt lat="45.60064" lon="6.66399">
        <ele>1691.1999511719</ele>
        <time>2014-01-12T10:13:22.000Z</time>
      </trkpt>
      <trkpt lat="45.60065" lon="6.66402">
        <ele>1692</ele>
        <time>2014-01-12T10:13:33.000Z</time>
      </trkpt>
      <trkpt lat="45.60068" lon="6.66395">
        <ele>1693.4000244141</ele>
        <time>2014-01-12T10:14:31.000Z</time>
      </trkpt>
      <trkpt lat="45.60068" lon="6.664">
        <ele>1693.5999755859</ele>
        <time>2014-01-12T10:15:01.000Z</time>
      </trkpt>
      <trkpt lat="45.60067" lon="6.66402">
        <ele>1693.1999511719</ele>
        <time>2014-01-12T10:15:11.000Z</time>
      </trkpt>
      <trkpt lat="45.60069" lon="6.66406">
        <ele>1694.4000244141</ele>
        <time>2014-01-12T10:16:26.000Z</time>
      </trkpt>
      <trkpt lat="45.60071" lon="6.66408">
        <ele>1695.8000488281</ele>
        <time>2014-01-12T10:16:45.000Z</time>
      </trkpt>
      <trkpt lat="45.60072" lon="6.66402">
        <ele>1696.5999755859</ele>
        <time>2014-01-12T10:17:19.000Z</time>
      </trkpt>
      <trkpt lat="45.60074" lon="6.66397">
        <ele>1697.4000244141</ele>
        <time>2014-01-12T10:17:25.000Z</time>
      </trkpt>
      <trkpt lat="45.60074" lon="6.66398">
        <ele>1697.1999511719</ele>
        <time>2014-01-12T10:17:45.000Z</time>
      </trkpt>
      <trkpt lat="45.60074" lon="6.66398">
        <ele>1697.1999511719</ele>
        <time>2014-01-12T10:17:53.000Z</time>
      </trkpt>
      <trkpt lat="45.60074" lon="6.66397">
        <ele>1697.1999511719</ele>
        <time>2014-01-12T10:18:04.000Z</time>
      </trkpt>
      <trkpt lat="45.60073" lon="6.66395">
        <ele>1697</ele>
        <time>2014-01-12T10:18:21.000Z</time>
      </trkpt>
      <trkpt lat="45.60072" lon="6.66388">
        <ele>1696</ele>
        <time>2014-01-12T10:18:58.000Z</time>
      </trkpt>
      <trkpt lat="45.60073" lon="6.66389">
        <ele>1696.5999755859</ele>
        <time>2014-01-12T10:19:18.000Z</time>
      </trkpt>
      <trkpt lat="45.60072" lon="6.6639">
        <ele>1696</ele>
        <time>2014-01-12T10:20:04.000Z</time>
      </trkpt>
      <trkpt lat="45.60072" lon="6.6638">
        <ele>1695.8000488281</ele>
        <time>2014-01-12T10:20:12.000Z</time>
      </trkpt>
      <trkpt lat="45.60072" lon="6.66372">
        <ele>1695.5999755859</ele>
        <time>2014-01-12T10:20:18.000Z</time>
      </trkpt>
      <trkpt lat="45.60072" lon="6.66371">
        <ele>1695.5999755859</ele>
        <time>2014-01-12T10:20:19.000Z</time>
      </trkpt>
      <trkpt lat="45.60073" lon="6.66368">
        <ele>1696</ele>
        <time>2014-01-12T10:20:22.000Z</time>
      </trkpt>
      <trkpt lat="45.60074" lon="6.66363">
        <ele>1696.8000488281</ele>
        <time>2014-01-12T10:20:27.000Z</time>
      </trkpt>
      <trkpt lat="45.60077" lon="6.66353">
        <ele>1698</ele>
        <time>2014-01-12T10:20:36.000Z</time>
      </trkpt>
      <trkpt lat="45.60079" lon="6.66347">
        <ele>1698.8000488281</ele>
        <time>2014-01-12T10:20:41.000Z</time>
      </trkpt>
      <trkpt lat="45.60081" lon="6.6634">
        <ele>1699.5999755859</ele>
        <time>2014-01-12T10:20:48.000Z</time>
      </trkpt>
      <trkpt lat="45.60082" lon="6.66333">
        <ele>1700</ele>
        <time>2014-01-12T10:20:54.000Z</time>
      </trkpt>
      <trkpt lat="45.60083" lon="6.66326">
        <ele>1700.5999755859</ele>
        <time>2014-01-12T10:21:01.000Z</time>
      </trkpt>
      <trkpt lat="45.60085" lon="6.66319">
        <ele>1701.8000488281</ele>
        <time>2014-01-12T10:21:08.000Z</time>
      </trkpt>
      <trkpt lat="45.60086" lon="6.66311">
        <ele>1702.5999755859</ele>
        <time>2014-01-12T10:21:15.000Z</time>
      </trkpt>
      <trkpt lat="45.60087" lon="6.66302">
        <ele>1702.5999755859</ele>
        <time>2014-01-12T10:21:22.000Z</time>
      </trkpt>
      <trkpt lat="45.60087" lon="6.66293">
        <ele>1702.1999511719</ele>
        <time>2014-01-12T10:21:30.000Z</time>
      </trkpt>
      <trkpt lat="45.60086" lon="6.66285">
        <ele>1701.8000488281</ele>
        <time>2014-01-12T10:21:36.000Z</time>
      </trkpt>
      <trkpt lat="45.60086" lon="6.66277">
        <ele>1701.1999511719</ele>
        <time>2014-01-12T10:21:43.000Z</time>
      </trkpt>
      <trkpt lat="45.60085" lon="6.6627">
        <ele>1700.8000488281</ele>
        <time>2014-01-12T10:21:48.000Z</time>
      </trkpt>
      <trkpt lat="45.60085" lon="6.66261">
        <ele>1700.4000244141</ele>
        <time>2014-01-12T10:21:55.000Z</time>
      </trkpt>
      <trkpt lat="45.60085" lon="6.66252">
        <ele>1700</ele>
        <time>2014-01-12T10:22:02.000Z</time>
      </trkpt>
      <trkpt lat="45.60085" lon="6.66244">
        <ele>1700</ele>
        <time>2014-01-12T10:22:09.000Z</time>
      </trkpt>
      <trkpt lat="45.60085" lon="6.66237">
        <ele>1700.1999511719</ele>
        <time>2014-01-12T10:22:14.000Z</time>
      </trkpt>
      <trkpt lat="45.60085" lon="6.66231">
        <ele>1700.4000244141</ele>
        <time>2014-01-12T10:22:20.000Z</time>
      </trkpt>
      <trkpt lat="45.60084" lon="6.66227">
        <ele>1700.4000244141</ele>
        <time>2014-01-12T10:22:24.000Z</time>
      </trkpt>
      <trkpt lat="45.60084" lon="6.66224">
        <ele>1700.1999511719</ele>
        <time>2014-01-12T10:22:28.000Z</time>
      </trkpt>
      <trkpt lat="45.60084" lon="6.6622">
        <ele>1700.1999511719</ele>
        <time>2014-01-12T10:22:32.000Z</time>
      </trkpt>
      <trkpt lat="45.60084" lon="6.66212">
        <ele>1700.1999511719</ele>
        <time>2014-01-12T10:22:39.000Z</time>
      </trkpt>
      <trkpt lat="45.60084" lon="6.66204">
        <ele>1700.1999511719</ele>
        <time>2014-01-12T10:22:45.000Z</time>
      </trkpt>
      <trkpt lat="45.60083" lon="6.66198">
        <ele>1700.1999511719</ele>
        <time>2014-01-12T10:22:50.000Z</time>
      </trkpt>
      <trkpt lat="45.60083" lon="6.66193">
        <ele>1700.1999511719</ele>
        <time>2014-01-12T10:22:54.000Z</time>
      </trkpt>
      <trkpt lat="45.60082" lon="6.66187">
        <ele>1700.1999511719</ele>
        <time>2014-01-12T10:22:59.000Z</time>
      </trkpt>
      <trkpt lat="45.60083" lon="6.66179">
        <ele>1700.5999755859</ele>
        <time>2014-01-12T10:23:06.000Z</time>
      </trkpt>
      <trkpt lat="45.60083" lon="6.66177">
        <ele>1700.5999755859</ele>
        <time>2014-01-12T10:23:07.000Z</time>
      </trkpt>
      <trkpt lat="45.60082" lon="6.66172">
        <ele>1700.5999755859</ele>
        <time>2014-01-12T10:23:12.000Z</time>
      </trkpt>
      <trkpt lat="45.60081" lon="6.66165">
        <ele>1700.8000488281</ele>
        <time>2014-01-12T10:23:18.000Z</time>
      </trkpt>
      <trkpt lat="45.6008" lon="6.66159">
        <ele>1701.8000488281</ele>
        <time>2014-01-12T10:23:23.000Z</time>
      </trkpt>
      <trkpt lat="45.6008" lon="6.66159">
        <ele>1701.8000488281</ele>
        <time>2014-01-12T10:23:23.000Z</time>
      </trkpt>
      <trkpt lat="45.6008" lon="6.66156">
        <ele>1702.1999511719</ele>
        <time>2014-01-12T10:23:25.000Z</time>
      </trkpt>
      <trkpt lat="45.60079" lon="6.66152">
        <ele>1702.8000488281</ele>
        <time>2014-01-12T10:23:29.000Z</time>
      </trkpt>
      <trkpt lat="45.60077" lon="6.66144">
        <ele>1704</ele>
        <time>2014-01-12T10:23:36.000Z</time>
      </trkpt>
      <trkpt lat="45.60076" lon="6.66139">
        <ele>1704.8000488281</ele>
        <time>2014-01-12T10:23:40.000Z</time>
      </trkpt>
      <trkpt lat="45.60075" lon="6.66131">
        <ele>1706</ele>
        <time>2014-01-12T10:23:47.000Z</time>
      </trkpt>
      <trkpt lat="45.60074" lon="6.66122">
        <ele>1707.4000244141</ele>
        <time>2014-01-12T10:23:54.000Z</time>
      </trkpt>
      <trkpt lat="45.60072" lon="6.66115">
        <ele>1708.4000244141</ele>
        <time>2014-01-12T10:24:00.000Z</time>
      </trkpt>
      <trkpt lat="45.6007" lon="6.66106">
        <ele>1709.5999755859</ele>
        <time>2014-01-12T10:24:08.000Z</time>
      </trkpt>
      <trkpt lat="45.60068" lon="6.66101">
        <ele>1710.1999511719</ele>
        <time>2014-01-12T10:24:13.000Z</time>
      </trkpt>
      <trkpt lat="45.60066" lon="6.66096">
        <ele>1711</ele>
        <time>2014-01-12T10:24:18.000Z</time>
      </trkpt>
      <trkpt lat="45.60065" lon="6.66088">
        <ele>1712</ele>
        <time>2014-01-12T10:24:25.000Z</time>
      </trkpt>
      <trkpt lat="45.60063" lon="6.66081">
        <ele>1713.1999511719</ele>
        <time>2014-01-12T10:24:31.000Z</time>
      </trkpt>
      <trkpt lat="45.60062" lon="6.66074">
        <ele>1714.1999511719</ele>
        <time>2014-01-12T10:24:37.000Z</time>
      </trkpt>
      <trkpt lat="45.60058" lon="6.66066">
        <ele>1715.4000244141</ele>
        <time>2014-01-12T10:24:45.000Z</time>
      </trkpt>
      <trkpt lat="45.60054" lon="6.66058">
        <ele>1716.4000244141</ele>
        <time>2014-01-12T10:24:54.000Z</time>
      </trkpt>
      <trkpt lat="45.60051" lon="6.66053">
        <ele>1716.8000488281</ele>
        <time>2014-01-12T10:25:01.000Z</time>
      </trkpt>
      <trkpt lat="45.60046" lon="6.66047">
        <ele>1717.4000244141</ele>
        <time>2014-01-12T10:25:09.000Z</time>
      </trkpt>
      <trkpt lat="45.60045" lon="6.66043">
        <ele>1718</ele>
        <time>2014-01-12T10:25:13.000Z</time>
      </trkpt>
      <trkpt lat="45.60043" lon="6.66036">
        <ele>1719.4000244141</ele>
        <time>2014-01-12T10:25:20.000Z</time>
      </trkpt>
      <trkpt lat="45.60042" lon="6.6603">
        <ele>1720.4000244141</ele>
        <time>2014-01-12T10:25:26.000Z</time>
      </trkpt>
      <trkpt lat="45.60041" lon="6.66024">
        <ele>1721.8000488281</ele>
        <time>2014-01-12T10:25:32.000Z</time>
      </trkpt>
      <trkpt lat="45.60038" lon="6.66017">
        <ele>1722.8000488281</ele>
        <time>2014-01-12T10:25:39.000Z</time>
      </trkpt>
      <trkpt lat="45.60037" lon="6.66013">
        <ele>1723.5999755859</ele>
        <time>2014-01-12T10:25:45.000Z</time>
      </trkpt>
      <trkpt lat="45.60035" lon="6.66008">
        <ele>1724.5999755859</ele>
        <time>2014-01-12T10:25:50.000Z</time>
      </trkpt>
      <trkpt lat="45.60034" lon="6.66003">
        <ele>1725.5999755859</ele>
        <time>2014-01-12T10:25:54.000Z</time>
      </trkpt>
      <trkpt lat="45.60033" lon="6.65997">
        <ele>1726.8000488281</ele>
        <time>2014-01-12T10:26:00.000Z</time>
      </trkpt>
      <trkpt lat="45.60032" lon="6.65992">
        <ele>1727.4000244141</ele>
        <time>2014-01-12T10:26:05.000Z</time>
      </trkpt>
      <trkpt lat="45.6003" lon="6.65987">
        <ele>1728.1999511719</ele>
        <time>2014-01-12T10:26:09.000Z</time>
      </trkpt>
      <trkpt lat="45.60029" lon="6.65982">
        <ele>1729.1999511719</ele>
        <time>2014-01-12T10:26:14.000Z</time>
      </trkpt>
      <trkpt lat="45.60028" lon="6.65976">
        <ele>1730.1999511719</ele>
        <time>2014-01-12T10:26:19.000Z</time>
      </trkpt>
      <trkpt lat="45.60027" lon="6.65971">
        <ele>1731</ele>
        <time>2014-01-12T10:26:23.000Z</time>
      </trkpt>
      <trkpt lat="45.60027" lon="6.65963">
        <ele>1732.5999755859</ele>
        <time>2014-01-12T10:26:30.000Z</time>
      </trkpt>
      <trkpt lat="45.60027" lon="6.65958">
        <ele>1733.5999755859</ele>
        <time>2014-01-12T10:26:35.000Z</time>
      </trkpt>
      <trkpt lat="45.60029" lon="6.65958">
        <ele>1733.8000488281</ele>
        <time>2014-01-12T10:26:40.000Z</time>
      </trkpt>
      <trkpt lat="45.60032" lon="6.65962">
        <ele>1733.4000244141</ele>
        <time>2014-01-12T10:26:45.000Z</time>
      </trkpt>
      <trkpt lat="45.60033" lon="6.65966">
        <ele>1732.8000488281</ele>
        <time>2014-01-12T10:26:49.000Z</time>
      </trkpt>
      <trkpt lat="45.60039" lon="6.65976">
        <ele>1731.5999755859</ele>
        <time>2014-01-12T10:26:58.000Z</time>
      </trkpt>
      <trkpt lat="45.6004" lon="6.65976">
        <ele>1731.8000488281</ele>
        <time>2014-01-12T10:26:59.000Z</time>
      </trkpt>
      <trkpt lat="45.60042" lon="6.65978">
        <ele>1731.5999755859</ele>
        <time>2014-01-12T10:27:01.000Z</time>
      </trkpt>
      <trkpt lat="45.60046" lon="6.65982">
        <ele>1731.4000244141</ele>
        <time>2014-01-12T10:27:06.000Z</time>
      </trkpt>
      <trkpt lat="45.60051" lon="6.65983">
        <ele>1731.8000488281</ele>
        <time>2014-01-12T10:27:11.000Z</time>
      </trkpt>
      <trkpt lat="45.60051" lon="6.6599">
        <ele>1730.8000488281</ele>
        <time>2014-01-12T10:27:17.000Z</time>
      </trkpt>
      <trkpt lat="45.60054" lon="6.65995">
        <ele>1730.4000244141</ele>
        <time>2014-01-12T10:27:22.000Z</time>
      </trkpt>
      <trkpt lat="45.60057" lon="6.65998">
        <ele>1730.1999511719</ele>
        <time>2014-01-12T10:27:27.000Z</time>
      </trkpt>
      <trkpt lat="45.60062" lon="6.66003">
        <ele>1730.1999511719</ele>
        <time>2014-01-12T10:27:35.000Z</time>
      </trkpt>
      <trkpt lat="45.60063" lon="6.66002">
        <ele>1730.1999511719</ele>
        <time>2014-01-12T10:27:36.000Z</time>
      </trkpt>
      <trkpt lat="45.60071" lon="6.66007">
        <ele>1730.4000244141</ele>
        <time>2014-01-12T10:27:47.000Z</time>
      </trkpt>
      <trkpt lat="45.60076" lon="6.66011">
        <ele>1730.5999755859</ele>
        <time>2014-01-12T10:27:53.000Z</time>
      </trkpt>
      <trkpt lat="45.60079" lon="6.66013">
        <ele>1730.5999755859</ele>
        <time>2014-01-12T10:28:00.000Z</time>
      </trkpt>
      <trkpt lat="45.60082" lon="6.66015">
        <ele>1730.5999755859</ele>
        <time>2014-01-12T10:28:04.000Z</time>
      </trkpt>
      <trkpt lat="45.60087" lon="6.6602">
        <ele>1732</ele>
        <time>2014-01-12T10:28:12.000Z</time>
      </trkpt>
      <trkpt lat="45.6009" lon="6.66023">
        <ele>1733</ele>
        <time>2014-01-12T10:28:17.000Z</time>
      </trkpt>
      <trkpt lat="45.60093" lon="6.66025">
        <ele>1734</ele>
        <time>2014-01-12T10:28:21.000Z</time>
      </trkpt>
      <trkpt lat="45.60097" lon="6.66027">
        <ele>1736</ele>
        <time>2014-01-12T10:28:29.000Z</time>
      </trkpt>
      <trkpt lat="45.60098" lon="6.66024">
        <ele>1737.4000244141</ele>
        <time>2014-01-12T10:28:33.000Z</time>
      </trkpt>
      <trkpt lat="45.60099" lon="6.66021">
        <ele>1738.4000244141</ele>
        <time>2014-01-12T10:28:37.000Z</time>
      </trkpt>
      <trkpt lat="45.60099" lon="6.66016">
        <ele>1738.8000488281</ele>
        <time>2014-01-12T10:28:42.000Z</time>
      </trkpt>
      <trkpt lat="45.60095" lon="6.66009">
        <ele>1738</ele>
        <time>2014-01-12T10:28:50.000Z</time>
      </trkpt>
      <trkpt lat="45.60093" lon="6.66007">
        <ele>1737.8000488281</ele>
        <time>2014-01-12T10:28:52.000Z</time>
      </trkpt>
      <trkpt lat="45.60089" lon="6.65999">
        <ele>1737.1999511719</ele>
        <time>2014-01-12T10:29:00.000Z</time>
      </trkpt>
      <trkpt lat="45.60087" lon="6.65995">
        <ele>1736.5999755859</ele>
        <time>2014-01-12T10:29:05.000Z</time>
      </trkpt>
      <trkpt lat="45.60083" lon="6.65987">
        <ele>1735.8000488281</ele>
        <time>2014-01-12T10:29:13.000Z</time>
      </trkpt>
      <trkpt lat="45.60081" lon="6.65981">
        <ele>1736.4000244141</ele>
        <time>2014-01-12T10:29:19.000Z</time>
      </trkpt>
      <trkpt lat="45.6008" lon="6.65977">
        <ele>1737</ele>
        <time>2014-01-12T10:29:24.000Z</time>
      </trkpt>
      <trkpt lat="45.60078" lon="6.65972">
        <ele>1737.4000244141</ele>
        <time>2014-01-12T10:29:29.000Z</time>
      </trkpt>
      <trkpt lat="45.60076" lon="6.65967">
        <ele>1737.8000488281</ele>
        <time>2014-01-12T10:29:34.000Z</time>
      </trkpt>
      <trkpt lat="45.60075" lon="6.65961">
        <ele>1738.5999755859</ele>
        <time>2014-01-12T10:29:40.000Z</time>
      </trkpt>
      <trkpt lat="45.60072" lon="6.65954">
        <ele>1739.1999511719</ele>
        <time>2014-01-12T10:29:49.000Z</time>
      </trkpt>
      <trkpt lat="45.6007" lon="6.65948">
        <ele>1740</ele>
        <time>2014-01-12T10:30:16.000Z</time>
      </trkpt>
      <trkpt lat="45.60069" lon="6.65943">
        <ele>1740.8000488281</ele>
        <time>2014-01-12T10:30:22.000Z</time>
      </trkpt>
      <trkpt lat="45.60068" lon="6.65937">
        <ele>1741.5999755859</ele>
        <time>2014-01-12T10:30:28.000Z</time>
      </trkpt>
      <trkpt lat="45.60067" lon="6.65931">
        <ele>1742.5999755859</ele>
        <time>2014-01-12T10:30:34.000Z</time>
      </trkpt>
      <trkpt lat="45.60066" lon="6.65921">
        <ele>1744</ele>
        <time>2014-01-12T10:30:42.000Z</time>
      </trkpt>
      <trkpt lat="45.60065" lon="6.6592">
        <ele>1744.1999511719</ele>
        <time>2014-01-12T10:30:43.000Z</time>
      </trkpt>
      <trkpt lat="45.60064" lon="6.65913">
        <ele>1745.1999511719</ele>
        <time>2014-01-12T10:30:49.000Z</time>
      </trkpt>
      <trkpt lat="45.60062" lon="6.65904">
        <ele>1746.5999755859</ele>
        <time>2014-01-12T10:30:58.000Z</time>
      </trkpt>
      <trkpt lat="45.60059" lon="6.65897">
        <ele>1747.8000488281</ele>
        <time>2014-01-12T10:31:05.000Z</time>
      </trkpt>
      <trkpt lat="45.60057" lon="6.65891">
        <ele>1748.8000488281</ele>
        <time>2014-01-12T10:31:11.000Z</time>
      </trkpt>
      <trkpt lat="45.60058" lon="6.65886">
        <ele>1749.5999755859</ele>
        <time>2014-01-12T10:31:16.000Z</time>
      </trkpt>
      <trkpt lat="45.60062" lon="6.65884">
        <ele>1750.1999511719</ele>
        <time>2014-01-12T10:31:22.000Z</time>
      </trkpt>
      <trkpt lat="45.60065" lon="6.65885">
        <ele>1750.1999511719</ele>
        <time>2014-01-12T10:31:27.000Z</time>
      </trkpt>
      <trkpt lat="45.60069" lon="6.65891">
        <ele>1749.1999511719</ele>
        <time>2014-01-12T10:31:34.000Z</time>
      </trkpt>
      <trkpt lat="45.6007" lon="6.65893">
        <ele>1749</ele>
        <time>2014-01-12T10:31:36.000Z</time>
      </trkpt>
      <trkpt lat="45.60073" lon="6.65898">
        <ele>1748.1999511719</ele>
        <time>2014-01-12T10:31:43.000Z</time>
      </trkpt>
      <trkpt lat="45.60077" lon="6.65905">
        <ele>1747.4000244141</ele>
        <time>2014-01-12T10:31:51.000Z</time>
      </trkpt>
      <trkpt lat="45.60081" lon="6.6591">
        <ele>1746.8000488281</ele>
        <time>2014-01-12T10:31:58.000Z</time>
      </trkpt>
      <trkpt lat="45.60083" lon="6.65911">
        <ele>1746.8000488281</ele>
        <time>2014-01-12T10:32:00.000Z</time>
      </trkpt>
      <trkpt lat="45.60086" lon="6.65914">
        <ele>1747.5999755859</ele>
        <time>2014-01-12T10:32:04.000Z</time>
      </trkpt>
      <trkpt lat="45.60091" lon="6.6592">
        <ele>1748.5999755859</ele>
        <time>2014-01-12T10:32:12.000Z</time>
      </trkpt>
      <trkpt lat="45.60094" lon="6.65924">
        <ele>1749.5999755859</ele>
        <time>2014-01-12T10:32:19.000Z</time>
      </trkpt>
      <trkpt lat="45.60097" lon="6.65921">
        <ele>1751.1999511719</ele>
        <time>2014-01-12T10:32:25.000Z</time>
      </trkpt>
      <trkpt lat="45.60098" lon="6.65918">
        <ele>1751.8000488281</ele>
        <time>2014-01-12T10:32:29.000Z</time>
      </trkpt>
      <trkpt lat="45.60096" lon="6.65912">
        <ele>1751.8000488281</ele>
        <time>2014-01-12T10:32:36.000Z</time>
      </trkpt>
      <trkpt lat="45.60094" lon="6.65907">
        <ele>1751.5999755859</ele>
        <time>2014-01-12T10:32:42.000Z</time>
      </trkpt>
      <trkpt lat="45.60091" lon="6.659">
        <ele>1751.5999755859</ele>
        <time>2014-01-12T10:32:49.000Z</time>
      </trkpt>
      <trkpt lat="45.6009" lon="6.65894">
        <ele>1751.8000488281</ele>
        <time>2014-01-12T10:32:55.000Z</time>
      </trkpt>
      <trkpt lat="45.60089" lon="6.65886">
        <ele>1752.4000244141</ele>
        <time>2014-01-12T10:33:02.000Z</time>
      </trkpt>
      <trkpt lat="45.60088" lon="6.6588">
        <ele>1752.8000488281</ele>
        <time>2014-01-12T10:33:08.000Z</time>
      </trkpt>
      <trkpt lat="45.60087" lon="6.65874">
        <ele>1753.5999755859</ele>
        <time>2014-01-12T10:33:14.000Z</time>
      </trkpt>
      <trkpt lat="45.60087" lon="6.65868">
        <ele>1754.4000244141</ele>
        <time>2014-01-12T10:33:20.000Z</time>
      </trkpt>
      <trkpt lat="45.60087" lon="6.65861">
        <ele>1755.1999511719</ele>
        <time>2014-01-12T10:33:26.000Z</time>
      </trkpt>
      <trkpt lat="45.60088" lon="6.65855">
        <ele>1756.4000244141</ele>
        <time>2014-01-12T10:33:33.000Z</time>
      </trkpt>
      <trkpt lat="45.60088" lon="6.65849">
        <ele>1757.4000244141</ele>
        <time>2014-01-12T10:33:39.000Z</time>
      </trkpt>
      <trkpt lat="45.60088" lon="6.6584">
        <ele>1758.5999755859</ele>
        <time>2014-01-12T10:33:49.000Z</time>
      </trkpt>
      <trkpt lat="45.60089" lon="6.65836">
        <ele>1759.4000244141</ele>
        <time>2014-01-12T10:33:54.000Z</time>
      </trkpt>
      <trkpt lat="45.60089" lon="6.65829">
        <ele>1760.4000244141</ele>
        <time>2014-01-12T10:34:03.000Z</time>
      </trkpt>
      <trkpt lat="45.60089" lon="6.65825">
        <ele>1761</ele>
        <time>2014-01-12T10:34:07.000Z</time>
      </trkpt>
      <trkpt lat="45.60089" lon="6.6582">
        <ele>1761.5999755859</ele>
        <time>2014-01-12T10:34:13.000Z</time>
      </trkpt>
      <trkpt lat="45.60089" lon="6.65812">
        <ele>1762.5999755859</ele>
        <time>2014-01-12T10:34:22.000Z</time>
      </trkpt>
      <trkpt lat="45.60089" lon="6.65808">
        <ele>1763.1999511719</ele>
        <time>2014-01-12T10:34:26.000Z</time>
      </trkpt>
      <trkpt lat="45.60089" lon="6.65803">
        <ele>1763.5999755859</ele>
        <time>2014-01-12T10:34:31.000Z</time>
      </trkpt>
      <trkpt lat="45.60089" lon="6.65796">
        <ele>1764.5999755859</ele>
        <time>2014-01-12T10:34:39.000Z</time>
      </trkpt>
      <trkpt lat="45.60089" lon="6.65791">
        <ele>1765.4000244141</ele>
        <time>2014-01-12T10:34:45.000Z</time>
      </trkpt>
      <trkpt lat="45.6009" lon="6.65783">
        <ele>1766.5999755859</ele>
        <time>2014-01-12T10:34:52.000Z</time>
      </trkpt>
      <trkpt lat="45.60091" lon="6.65777">
        <ele>1767.8000488281</ele>
        <time>2014-01-12T10:34:58.000Z</time>
      </trkpt>
      <trkpt lat="45.60092" lon="6.65771">
        <ele>1768.5999755859</ele>
        <time>2014-01-12T10:35:04.000Z</time>
      </trkpt>
      <trkpt lat="45.60092" lon="6.65764">
        <ele>1769.5999755859</ele>
        <time>2014-01-12T10:35:12.000Z</time>
      </trkpt>
      <trkpt lat="45.60092" lon="6.65759">
        <ele>1770.1999511719</ele>
        <time>2014-01-12T10:35:17.000Z</time>
      </trkpt>
      <trkpt lat="45.60092" lon="6.65755">
        <ele>1770.8000488281</ele>
        <time>2014-01-12T10:35:22.000Z</time>
      </trkpt>
      <trkpt lat="45.60093" lon="6.65752">
        <ele>1771.1999511719</ele>
        <time>2014-01-12T10:35:26.000Z</time>
      </trkpt>
      <trkpt lat="45.60094" lon="6.65749">
        <ele>1772.1999511719</ele>
        <time>2014-01-12T10:35:31.000Z</time>
      </trkpt>
      <trkpt lat="45.60096" lon="6.65748">
        <ele>1773</ele>
        <time>2014-01-12T10:35:35.000Z</time>
      </trkpt>
      <trkpt lat="45.60097" lon="6.65747">
        <ele>1773.4000244141</ele>
        <time>2014-01-12T10:35:40.000Z</time>
      </trkpt>
      <trkpt lat="45.601" lon="6.65748">
        <ele>1774</ele>
        <time>2014-01-12T10:35:59.000Z</time>
      </trkpt>
      <trkpt lat="45.60102" lon="6.65751">
        <ele>1774.1999511719</ele>
        <time>2014-01-12T10:36:04.000Z</time>
      </trkpt>
      <trkpt lat="45.60104" lon="6.65753">
        <ele>1774.1999511719</ele>
        <time>2014-01-12T10:36:10.000Z</time>
      </trkpt>
      <trkpt lat="45.60106" lon="6.65755">
        <ele>1774.5999755859</ele>
        <time>2014-01-12T10:36:36.000Z</time>
      </trkpt>
      <trkpt lat="45.6011" lon="6.65756">
        <ele>1775.5999755859</ele>
        <time>2014-01-12T10:38:30.000Z</time>
      </trkpt>
      <trkpt lat="45.60111" lon="6.65756">
        <ele>1775.8000488281</ele>
        <time>2014-01-12T10:38:48.000Z</time>
      </trkpt>
      <trkpt lat="45.6011" lon="6.65756">
        <ele>1775.5999755859</ele>
        <time>2014-01-12T10:38:57.000Z</time>
      </trkpt>
      <trkpt lat="45.6011" lon="6.65757">
        <ele>1775.4000244141</ele>
        <time>2014-01-12T10:39:26.000Z</time>
      </trkpt>
      <trkpt lat="45.6011" lon="6.65759">
        <ele>1775.1999511719</ele>
        <time>2014-01-12T10:40:15.000Z</time>
      </trkpt>
      <trkpt lat="45.60111" lon="6.6576">
        <ele>1775.4000244141</ele>
        <time>2014-01-12T10:40:29.000Z</time>
      </trkpt>
      <trkpt lat="45.60112" lon="6.65761">
        <ele>1775.5999755859</ele>
        <time>2014-01-12T10:40:33.000Z</time>
      </trkpt>
      <trkpt lat="45.60112" lon="6.65759">
        <ele>1776</ele>
        <time>2014-01-12T10:40:38.000Z</time>
      </trkpt>
      <trkpt lat="45.60112" lon="6.65757">
        <ele>1776.1999511719</ele>
        <time>2014-01-12T10:40:42.000Z</time>
      </trkpt>
      <trkpt lat="45.60112" lon="6.6575">
        <ele>1777</ele>
        <time>2014-01-12T10:40:49.000Z</time>
      </trkpt>
      <trkpt lat="45.60113" lon="6.65744">
        <ele>1778</ele>
        <time>2014-01-12T10:40:56.000Z</time>
      </trkpt>
      <trkpt lat="45.60115" lon="6.65742">
        <ele>1778.8000488281</ele>
        <time>2014-01-12T10:41:01.000Z</time>
      </trkpt>
      <trkpt lat="45.60116" lon="6.6574">
        <ele>1779.4000244141</ele>
        <time>2014-01-12T10:41:06.000Z</time>
      </trkpt>
      <trkpt lat="45.60117" lon="6.65737">
        <ele>1780.1999511719</ele>
        <time>2014-01-12T10:41:11.000Z</time>
      </trkpt>
      <trkpt lat="45.60118" lon="6.65735">
        <ele>1780.5999755859</ele>
        <time>2014-01-12T10:41:16.000Z</time>
      </trkpt>
      <trkpt lat="45.60119" lon="6.65733">
        <ele>1781.1999511719</ele>
        <time>2014-01-12T10:41:21.000Z</time>
      </trkpt>
      <trkpt lat="45.6012" lon="6.6573">
        <ele>1781.8000488281</ele>
        <time>2014-01-12T10:41:28.000Z</time>
      </trkpt>
      <trkpt lat="45.60121" lon="6.65729">
        <ele>1782.1999511719</ele>
        <time>2014-01-12T10:41:33.000Z</time>
      </trkpt>
      <trkpt lat="45.60122" lon="6.65726">
        <ele>1783</ele>
        <time>2014-01-12T10:41:39.000Z</time>
      </trkpt>
      <trkpt lat="45.60124" lon="6.65724">
        <ele>1783.5999755859</ele>
        <time>2014-01-12T10:41:44.000Z</time>
      </trkpt>
      <trkpt lat="45.60125" lon="6.65721">
        <ele>1784.1999511719</ele>
        <time>2014-01-12T10:41:52.000Z</time>
      </trkpt>
      <trkpt lat="45.60126" lon="6.65718">
        <ele>1784.8000488281</ele>
        <time>2014-01-12T10:41:58.000Z</time>
      </trkpt>
      <trkpt lat="45.60128" lon="6.65715">
        <ele>1785.5999755859</ele>
        <time>2014-01-12T10:42:05.000Z</time>
      </trkpt>
      <trkpt lat="45.60129" lon="6.65713">
        <ele>1786</ele>
        <time>2014-01-12T10:42:09.000Z</time>
      </trkpt>
      <trkpt lat="45.6013" lon="6.6571">
        <ele>1786.5999755859</ele>
        <time>2014-01-12T10:42:14.000Z</time>
      </trkpt>
      <trkpt lat="45.60131" lon="6.65707">
        <ele>1787.1999511719</ele>
        <time>2014-01-12T10:42:19.000Z</time>
      </trkpt>
      <trkpt lat="45.60133" lon="6.65704">
        <ele>1787.8000488281</ele>
        <time>2014-01-12T10:42:26.000Z</time>
      </trkpt>
      <trkpt lat="45.60134" lon="6.65702">
        <ele>1788.1999511719</ele>
        <time>2014-01-12T10:42:31.000Z</time>
      </trkpt>
      <trkpt lat="45.60135" lon="6.657">
        <ele>1788.5999755859</ele>
        <time>2014-01-12T10:42:39.000Z</time>
      </trkpt>
      <trkpt lat="45.60135" lon="6.65697">
        <ele>1789</ele>
        <time>2014-01-12T10:43:03.000Z</time>
      </trkpt>
      <trkpt lat="45.60136" lon="6.65695">
        <ele>1789.4000244141</ele>
        <time>2014-01-12T10:43:17.000Z</time>
      </trkpt>
      <trkpt lat="45.60137" lon="6.65695">
        <ele>1789.5999755859</ele>
        <time>2014-01-12T10:43:26.000Z</time>
      </trkpt>
      <trkpt lat="45.60139" lon="6.65692">
        <ele>1790.1999511719</ele>
        <time>2014-01-12T10:43:43.000Z</time>
      </trkpt>
      <trkpt lat="45.6014" lon="6.65689">
        <ele>1790.5999755859</ele>
        <time>2014-01-12T10:43:48.000Z</time>
      </trkpt>
      <trkpt lat="45.60142" lon="6.65687">
        <ele>1791</ele>
        <time>2014-01-12T10:43:52.000Z</time>
      </trkpt>
      <trkpt lat="45.60143" lon="6.65685">
        <ele>1791.4000244141</ele>
        <time>2014-01-12T10:43:56.000Z</time>
      </trkpt>
      <trkpt lat="45.60144" lon="6.65682">
        <ele>1791.8000488281</ele>
        <time>2014-01-12T10:44:01.000Z</time>
      </trkpt>
      <trkpt lat="45.60145" lon="6.6568">
        <ele>1792.1999511719</ele>
        <time>2014-01-12T10:44:06.000Z</time>
      </trkpt>
      <trkpt lat="45.60146" lon="6.65678">
        <ele>1792.5999755859</ele>
        <time>2014-01-12T10:44:11.000Z</time>
      </trkpt>
      <trkpt lat="45.60147" lon="6.65676">
        <ele>1793</ele>
        <time>2014-01-12T10:44:22.000Z</time>
      </trkpt>
      <trkpt lat="45.60149" lon="6.65674">
        <ele>1793.4000244141</ele>
        <time>2014-01-12T10:44:26.000Z</time>
      </trkpt>
      <trkpt lat="45.60151" lon="6.65671">
        <ele>1793.8000488281</ele>
        <time>2014-01-12T10:44:32.000Z</time>
      </trkpt>
      <trkpt lat="45.60153" lon="6.65669">
        <ele>1794.1999511719</ele>
        <time>2014-01-12T10:44:36.000Z</time>
      </trkpt>
      <trkpt lat="45.60155" lon="6.65667">
        <ele>1794.5999755859</ele>
        <time>2014-01-12T10:44:42.000Z</time>
      </trkpt>
      <trkpt lat="45.60157" lon="6.65665">
        <ele>1795</ele>
        <time>2014-01-12T10:44:47.000Z</time>
      </trkpt>
      <trkpt lat="45.60159" lon="6.65664">
        <ele>1795.4000244141</ele>
        <time>2014-01-12T10:44:52.000Z</time>
      </trkpt>
      <trkpt lat="45.60161" lon="6.65664">
        <ele>1795.5999755859</ele>
        <time>2014-01-12T10:44:58.000Z</time>
      </trkpt>
      <trkpt lat="45.60164" lon="6.65665">
        <ele>1795.8000488281</ele>
        <time>2014-01-12T10:45:04.000Z</time>
      </trkpt>
      <trkpt lat="45.60166" lon="6.65666">
        <ele>1796</ele>
        <time>2014-01-12T10:45:09.000Z</time>
      </trkpt>
      <trkpt lat="45.60167" lon="6.65665">
        <ele>1796.4000244141</ele>
        <time>2014-01-12T10:45:18.000Z</time>
      </trkpt>
      <trkpt lat="45.60168" lon="6.65661">
        <ele>1797.1999511719</ele>
        <time>2014-01-12T10:45:24.000Z</time>
      </trkpt>
      <trkpt lat="45.6017" lon="6.65654">
        <ele>1798.8000488281</ele>
        <time>2014-01-12T10:45:32.000Z</time>
      </trkpt>
      <trkpt lat="45.60172" lon="6.65653">
        <ele>1800</ele>
        <time>2014-01-12T10:45:36.000Z</time>
      </trkpt>
      <trkpt lat="45.60174" lon="6.65654">
        <ele>1800.8000488281</ele>
        <time>2014-01-12T10:45:40.000Z</time>
      </trkpt>
      <trkpt lat="45.60176" lon="6.65655">
        <ele>1801.4000244141</ele>
        <time>2014-01-12T10:45:46.000Z</time>
      </trkpt>
      <trkpt lat="45.60177" lon="6.65653">
        <ele>1802</ele>
        <time>2014-01-12T10:45:51.000Z</time>
      </trkpt>
      <trkpt lat="45.60178" lon="6.65649">
        <ele>1803</ele>
        <time>2014-01-12T10:45:57.000Z</time>
      </trkpt>
      <trkpt lat="45.60179" lon="6.65645">
        <ele>1804</ele>
        <time>2014-01-12T10:46:04.000Z</time>
      </trkpt>
      <trkpt lat="45.60181" lon="6.65642">
        <ele>1804.8000488281</ele>
        <time>2014-01-12T10:46:09.000Z</time>
      </trkpt>
      <trkpt lat="45.60182" lon="6.65639">
        <ele>1805.5999755859</ele>
        <time>2014-01-12T10:46:14.000Z</time>
      </trkpt>
      <trkpt lat="45.60183" lon="6.65637">
        <ele>1806.4000244141</ele>
        <time>2014-01-12T10:46:19.000Z</time>
      </trkpt>
      <trkpt lat="45.60184" lon="6.65634">
        <ele>1807</ele>
        <time>2014-01-12T10:46:24.000Z</time>
      </trkpt>
      <trkpt lat="45.60185" lon="6.6563">
        <ele>1807.8000488281</ele>
        <time>2014-01-12T10:46:31.000Z</time>
      </trkpt>
      <trkpt lat="45.60187" lon="6.65626">
        <ele>1808.8000488281</ele>
        <time>2014-01-12T10:46:38.000Z</time>
      </trkpt>
      <trkpt lat="45.60189" lon="6.65621">
        <ele>1810</ele>
        <time>2014-01-12T10:46:46.000Z</time>
      </trkpt>
      <trkpt lat="45.6019" lon="6.65619">
        <ele>1810.8000488281</ele>
        <time>2014-01-12T10:46:51.000Z</time>
      </trkpt>
      <trkpt lat="45.60191" lon="6.65617">
        <ele>1811.4000244141</ele>
        <time>2014-01-12T10:46:56.000Z</time>
      </trkpt>
      <trkpt lat="45.60192" lon="6.65617">
        <ele>1811.8000488281</ele>
        <time>2014-01-12T10:47:04.000Z</time>
      </trkpt>
      <trkpt lat="45.60193" lon="6.65621">
        <ele>1811.8000488281</ele>
        <time>2014-01-12T10:47:10.000Z</time>
      </trkpt>
      <trkpt lat="45.60194" lon="6.65624">
        <ele>1812</ele>
        <time>2014-01-12T10:47:15.000Z</time>
      </trkpt>
      <trkpt lat="45.60196" lon="6.65628">
        <ele>1812.1999511719</ele>
        <time>2014-01-12T10:47:21.000Z</time>
      </trkpt>
      <trkpt lat="45.60197" lon="6.65631">
        <ele>1812.5999755859</ele>
        <time>2014-01-12T10:47:27.000Z</time>
      </trkpt>
      <trkpt lat="45.60199" lon="6.65633">
        <ele>1813</ele>
        <time>2014-01-12T10:47:32.000Z</time>
      </trkpt>
      <trkpt lat="45.602" lon="6.65633">
        <ele>1813.5999755859</ele>
        <time>2014-01-12T10:47:38.000Z</time>
      </trkpt>
      <trkpt lat="45.60202" lon="6.65631">
        <ele>1814.4000244141</ele>
        <time>2014-01-12T10:47:43.000Z</time>
      </trkpt>
      <trkpt lat="45.60202" lon="6.65628">
        <ele>1814.8000488281</ele>
        <time>2014-01-12T10:47:48.000Z</time>
      </trkpt>
      <trkpt lat="45.60203" lon="6.65624">
        <ele>1815.5999755859</ele>
        <time>2014-01-12T10:47:53.000Z</time>
      </trkpt>
      <trkpt lat="45.60204" lon="6.65619">
        <ele>1816.1999511719</ele>
        <time>2014-01-12T10:47:58.000Z</time>
      </trkpt>
      <trkpt lat="45.60205" lon="6.65612">
        <ele>1817</ele>
        <time>2014-01-12T10:48:05.000Z</time>
      </trkpt>
      <trkpt lat="45.60206" lon="6.6561">
        <ele>1817.4000244141</ele>
        <time>2014-01-12T10:48:09.000Z</time>
      </trkpt>
      <trkpt lat="45.60207" lon="6.65608">
        <ele>1818.1999511719</ele>
        <time>2014-01-12T10:48:14.000Z</time>
      </trkpt>
      <trkpt lat="45.60209" lon="6.65606">
        <ele>1819</ele>
        <time>2014-01-12T10:48:19.000Z</time>
      </trkpt>
      <trkpt lat="45.60211" lon="6.65604">
        <ele>1819.5999755859</ele>
        <time>2014-01-12T10:48:24.000Z</time>
      </trkpt>
      <trkpt lat="45.60212" lon="6.65602">
        <ele>1820.1999511719</ele>
        <time>2014-01-12T10:48:29.000Z</time>
      </trkpt>
      <trkpt lat="45.60213" lon="6.65599">
        <ele>1820.8000488281</ele>
        <time>2014-01-12T10:48:33.000Z</time>
      </trkpt>
      <trkpt lat="45.60215" lon="6.65596">
        <ele>1821.5999755859</ele>
        <time>2014-01-12T10:48:40.000Z</time>
      </trkpt>
      <trkpt lat="45.60217" lon="6.65593">
        <ele>1822.4000244141</ele>
        <time>2014-01-12T10:48:45.000Z</time>
      </trkpt>
      <trkpt lat="45.60218" lon="6.65591">
        <ele>1823</ele>
        <time>2014-01-12T10:48:49.000Z</time>
      </trkpt>
      <trkpt lat="45.60219" lon="6.6559">
        <ele>1823.4000244141</ele>
        <time>2014-01-12T10:48:53.000Z</time>
      </trkpt>
      <trkpt lat="45.6022" lon="6.65588">
        <ele>1823.8000488281</ele>
        <time>2014-01-12T10:48:58.000Z</time>
      </trkpt>
      <trkpt lat="45.60221" lon="6.65585">
        <ele>1824.1999511719</ele>
        <time>2014-01-12T10:49:06.000Z</time>
      </trkpt>
      <trkpt lat="45.60222" lon="6.6558">
        <ele>1825</ele>
        <time>2014-01-12T10:49:12.000Z</time>
      </trkpt>
      <trkpt lat="45.60223" lon="6.65577">
        <ele>1825.5999755859</ele>
        <time>2014-01-12T10:49:17.000Z</time>
      </trkpt>
      <trkpt lat="45.60225" lon="6.65575">
        <ele>1826.1999511719</ele>
        <time>2014-01-12T10:49:21.000Z</time>
      </trkpt>
      <trkpt lat="45.60227" lon="6.65573">
        <ele>1827</ele>
        <time>2014-01-12T10:49:27.000Z</time>
      </trkpt>
      <trkpt lat="45.60229" lon="6.65571">
        <ele>1827.8000488281</ele>
        <time>2014-01-12T10:49:32.000Z</time>
      </trkpt>
      <trkpt lat="45.60231" lon="6.65569">
        <ele>1828.4000244141</ele>
        <time>2014-01-12T10:49:36.000Z</time>
      </trkpt>
      <trkpt lat="45.60233" lon="6.65566">
        <ele>1829.1999511719</ele>
        <time>2014-01-12T10:49:43.000Z</time>
      </trkpt>
      <trkpt lat="45.60234" lon="6.65564">
        <ele>1829.8000488281</ele>
        <time>2014-01-12T10:49:47.000Z</time>
      </trkpt>
      <trkpt lat="45.60235" lon="6.65562">
        <ele>1830.1999511719</ele>
        <time>2014-01-12T10:49:51.000Z</time>
      </trkpt>
      <trkpt lat="45.60238" lon="6.65558">
        <ele>1831.1999511719</ele>
        <time>2014-01-12T10:49:59.000Z</time>
      </trkpt>
      <trkpt lat="45.6024" lon="6.65557">
        <ele>1831.5999755859</ele>
        <time>2014-01-12T10:50:03.000Z</time>
      </trkpt>
      <trkpt lat="45.60242" lon="6.65558">
        <ele>1832.1999511719</ele>
        <time>2014-01-12T10:50:08.000Z</time>
      </trkpt>
      <trkpt lat="45.60243" lon="6.65557">
        <ele>1832.5999755859</ele>
        <time>2014-01-12T10:50:12.000Z</time>
      </trkpt>
      <trkpt lat="45.60245" lon="6.65554">
        <ele>1833</ele>
        <time>2014-01-12T10:50:17.000Z</time>
      </trkpt>
      <trkpt lat="45.60247" lon="6.65549">
        <ele>1833.5999755859</ele>
        <time>2014-01-12T10:50:24.000Z</time>
      </trkpt>
      <trkpt lat="45.60249" lon="6.65546">
        <ele>1834</ele>
        <time>2014-01-12T10:50:28.000Z</time>
      </trkpt>
      <trkpt lat="45.60251" lon="6.65542">
        <ele>1834.8000488281</ele>
        <time>2014-01-12T10:50:34.000Z</time>
      </trkpt>
      <trkpt lat="45.60252" lon="6.6554">
        <ele>1835.4000244141</ele>
        <time>2014-01-12T10:50:39.000Z</time>
      </trkpt>
      <trkpt lat="45.60254" lon="6.65538">
        <ele>1836</ele>
        <time>2014-01-12T10:50:43.000Z</time>
      </trkpt>
      <trkpt lat="45.60256" lon="6.65536">
        <ele>1836.5999755859</ele>
        <time>2014-01-12T10:50:47.000Z</time>
      </trkpt>
      <trkpt lat="45.60258" lon="6.65534">
        <ele>1837.4000244141</ele>
        <time>2014-01-12T10:50:53.000Z</time>
      </trkpt>
      <trkpt lat="45.6026" lon="6.65532">
        <ele>1838</ele>
        <time>2014-01-12T10:50:58.000Z</time>
      </trkpt>
      <trkpt lat="45.60261" lon="6.65529">
        <ele>1838.4000244141</ele>
        <time>2014-01-12T10:51:02.000Z</time>
      </trkpt>
      <trkpt lat="45.60263" lon="6.65527">
        <ele>1839</ele>
        <time>2014-01-12T10:51:07.000Z</time>
      </trkpt>
      <trkpt lat="45.60265" lon="6.65523">
        <ele>1839.8000488281</ele>
        <time>2014-01-12T10:51:14.000Z</time>
      </trkpt>
      <trkpt lat="45.60266" lon="6.65522">
        <ele>1840.1999511719</ele>
        <time>2014-01-12T10:51:18.000Z</time>
      </trkpt>
      <trkpt lat="45.60268" lon="6.6552">
        <ele>1840.8000488281</ele>
        <time>2014-01-12T10:51:23.000Z</time>
      </trkpt>
      <trkpt lat="45.6027" lon="6.65519">
        <ele>1841.5999755859</ele>
        <time>2014-01-12T10:51:28.000Z</time>
      </trkpt>
      <trkpt lat="45.60271" lon="6.65518">
        <ele>1842</ele>
        <time>2014-01-12T10:51:32.000Z</time>
      </trkpt>
      <trkpt lat="45.60274" lon="6.65516">
        <ele>1842.5999755859</ele>
        <time>2014-01-12T10:51:38.000Z</time>
      </trkpt>
      <trkpt lat="45.60275" lon="6.65514">
        <ele>1843.1999511719</ele>
        <time>2014-01-12T10:51:43.000Z</time>
      </trkpt>
      <trkpt lat="45.60278" lon="6.65512">
        <ele>1843.8000488281</ele>
        <time>2014-01-12T10:51:49.000Z</time>
      </trkpt>
      <trkpt lat="45.6028" lon="6.65509">
        <ele>1844.5999755859</ele>
        <time>2014-01-12T10:51:55.000Z</time>
      </trkpt>
      <trkpt lat="45.60281" lon="6.65507">
        <ele>1845</ele>
        <time>2014-01-12T10:51:59.000Z</time>
      </trkpt>
      <trkpt lat="45.60283" lon="6.65505">
        <ele>1845.5999755859</ele>
        <time>2014-01-12T10:52:05.000Z</time>
      </trkpt>
      <trkpt lat="45.60285" lon="6.65503">
        <ele>1846</ele>
        <time>2014-01-12T10:52:09.000Z</time>
      </trkpt>
      <trkpt lat="45.60287" lon="6.655">
        <ele>1846.5999755859</ele>
        <time>2014-01-12T10:52:15.000Z</time>
      </trkpt>
      <trkpt lat="45.60289" lon="6.65499">
        <ele>1847.1999511719</ele>
        <time>2014-01-12T10:52:20.000Z</time>
      </trkpt>
      <trkpt lat="45.60291" lon="6.65496">
        <ele>1848.1999511719</ele>
        <time>2014-01-12T10:52:25.000Z</time>
      </trkpt>
      <trkpt lat="45.60293" lon="6.65494">
        <ele>1849.1999511719</ele>
        <time>2014-01-12T10:52:31.000Z</time>
      </trkpt>
      <trkpt lat="45.60294" lon="6.65493">
        <ele>1849.8000488281</ele>
        <time>2014-01-12T10:52:35.000Z</time>
      </trkpt>
      <trkpt lat="45.60296" lon="6.65492">
        <ele>1850.4000244141</ele>
        <time>2014-01-12T10:52:39.000Z</time>
      </trkpt>
      <trkpt lat="45.60298" lon="6.65491">
        <ele>1851</ele>
        <time>2014-01-12T10:52:43.000Z</time>
      </trkpt>
      <trkpt lat="45.603" lon="6.65489">
        <ele>1851.8000488281</ele>
        <time>2014-01-12T10:52:48.000Z</time>
      </trkpt>
      <trkpt lat="45.60302" lon="6.65488">
        <ele>1852.4000244141</ele>
        <time>2014-01-12T10:52:52.000Z</time>
      </trkpt>
      <trkpt lat="45.60304" lon="6.65487">
        <ele>1853.1999511719</ele>
        <time>2014-01-12T10:52:58.000Z</time>
      </trkpt>
      <trkpt lat="45.60305" lon="6.65486">
        <ele>1853.8000488281</ele>
        <time>2014-01-12T10:53:03.000Z</time>
      </trkpt>
      <trkpt lat="45.60307" lon="6.65484">
        <ele>1854.5999755859</ele>
        <time>2014-01-12T10:53:08.000Z</time>
      </trkpt>
      <trkpt lat="45.6031" lon="6.65482">
        <ele>1855.5999755859</ele>
        <time>2014-01-12T10:53:13.000Z</time>
      </trkpt>
      <trkpt lat="45.6031" lon="6.65482">
        <ele>1855.5999755859</ele>
        <time>2014-01-12T10:53:19.000Z</time>
      </trkpt>
      <trkpt lat="45.6031" lon="6.65483">
        <ele>1855.4000244141</ele>
        <time>2014-01-12T10:54:53.000Z</time>
      </trkpt>
      <trkpt lat="45.60311" lon="6.65482">
        <ele>1856</ele>
        <time>2014-01-12T10:55:25.000Z</time>
      </trkpt>
      <trkpt lat="45.60314" lon="6.65479">
        <ele>1857</ele>
        <time>2014-01-12T10:55:33.000Z</time>
      </trkpt>
      <trkpt lat="45.60316" lon="6.65476">
        <ele>1857.8000488281</ele>
        <time>2014-01-12T10:55:40.000Z</time>
      </trkpt>
      <trkpt lat="45.60317" lon="6.65474">
        <ele>1858.4000244141</ele>
        <time>2014-01-12T10:55:44.000Z</time>
      </trkpt>
      <trkpt lat="45.60319" lon="6.65473">
        <ele>1859</ele>
        <time>2014-01-12T10:55:48.000Z</time>
      </trkpt>
      <trkpt lat="45.60321" lon="6.65471">
        <ele>1859.5999755859</ele>
        <time>2014-01-12T10:55:53.000Z</time>
      </trkpt>
      <trkpt lat="45.60322" lon="6.65468">
        <ele>1860.1999511719</ele>
        <time>2014-01-12T10:55:57.000Z</time>
      </trkpt>
      <trkpt lat="45.60324" lon="6.65466">
        <ele>1860.8000488281</ele>
        <time>2014-01-12T10:56:02.000Z</time>
      </trkpt>
      <trkpt lat="45.60325" lon="6.65465">
        <ele>1861.4000244141</ele>
        <time>2014-01-12T10:56:06.000Z</time>
      </trkpt>
      <trkpt lat="45.60327" lon="6.65464">
        <ele>1861.8000488281</ele>
        <time>2014-01-12T10:56:10.000Z</time>
      </trkpt>
      <trkpt lat="45.60329" lon="6.65463">
        <ele>1862.5999755859</ele>
        <time>2014-01-12T10:56:15.000Z</time>
      </trkpt>
      <trkpt lat="45.60331" lon="6.65461">
        <ele>1863.1999511719</ele>
        <time>2014-01-12T10:56:20.000Z</time>
      </trkpt>
      <trkpt lat="45.60334" lon="6.6546">
        <ele>1864</ele>
        <time>2014-01-12T10:56:26.000Z</time>
      </trkpt>
      <trkpt lat="45.60336" lon="6.65458">
        <ele>1864.5999755859</ele>
        <time>2014-01-12T10:56:30.000Z</time>
      </trkpt>
      <trkpt lat="45.60338" lon="6.65457">
        <ele>1865.4000244141</ele>
        <time>2014-01-12T10:56:36.000Z</time>
      </trkpt>
      <trkpt lat="45.60339" lon="6.65456">
        <ele>1865.8000488281</ele>
        <time>2014-01-12T10:56:38.000Z</time>
      </trkpt>
      <trkpt lat="45.60339" lon="6.65456">
        <ele>1865.8000488281</ele>
        <time>2014-01-12T10:56:38.000Z</time>
      </trkpt>
      <trkpt lat="45.6034" lon="6.65456">
        <ele>1866</ele>
        <time>2014-01-12T10:56:41.000Z</time>
      </trkpt>
      <trkpt lat="45.60342" lon="6.65454">
        <ele>1866.8000488281</ele>
        <time>2014-01-12T10:56:47.000Z</time>
      </trkpt>
      <trkpt lat="45.60344" lon="6.65453">
        <ele>1867.4000244141</ele>
        <time>2014-01-12T10:56:51.000Z</time>
      </trkpt>
      <trkpt lat="45.60345" lon="6.65451">
        <ele>1867.8000488281</ele>
        <time>2014-01-12T10:56:55.000Z</time>
      </trkpt>
      <trkpt lat="45.60347" lon="6.65449">
        <ele>1868.4000244141</ele>
        <time>2014-01-12T10:57:03.000Z</time>
      </trkpt>
      <trkpt lat="45.60349" lon="6.65448">
        <ele>1869</ele>
        <time>2014-01-12T10:57:08.000Z</time>
      </trkpt>
      <trkpt lat="45.6035" lon="6.65446">
        <ele>1869.8000488281</ele>
        <time>2014-01-12T10:57:14.000Z</time>
      </trkpt>
      <trkpt lat="45.60352" lon="6.65444">
        <ele>1870.4000244141</ele>
        <time>2014-01-12T10:57:19.000Z</time>
      </trkpt>
      <trkpt lat="45.60355" lon="6.65445">
        <ele>1871.1999511719</ele>
        <time>2014-01-12T10:57:25.000Z</time>
      </trkpt>
      <trkpt lat="45.60358" lon="6.65449">
        <ele>1871.8000488281</ele>
        <time>2014-01-12T10:57:32.000Z</time>
      </trkpt>
      <trkpt lat="45.60362" lon="6.65453">
        <ele>1872.4000244141</ele>
        <time>2014-01-12T10:57:40.000Z</time>
      </trkpt>
      <trkpt lat="45.60363" lon="6.65455">
        <ele>1872.8000488281</ele>
        <time>2014-01-12T10:57:44.000Z</time>
      </trkpt>
      <trkpt lat="45.60367" lon="6.65458">
        <ele>1873.4000244141</ele>
        <time>2014-01-12T10:57:53.000Z</time>
      </trkpt>
      <trkpt lat="45.60369" lon="6.65459">
        <ele>1874</ele>
        <time>2014-01-12T10:57:57.000Z</time>
      </trkpt>
      <trkpt lat="45.60371" lon="6.65458">
        <ele>1874.8000488281</ele>
        <time>2014-01-12T10:58:02.000Z</time>
      </trkpt>
      <trkpt lat="45.60374" lon="6.65457">
        <ele>1875.4000244141</ele>
        <time>2014-01-12T10:58:07.000Z</time>
      </trkpt>
      <trkpt lat="45.60376" lon="6.65454">
        <ele>1876.4000244141</ele>
        <time>2014-01-12T10:58:13.000Z</time>
      </trkpt>
      <trkpt lat="45.60378" lon="6.65453">
        <ele>1876.8000488281</ele>
        <time>2014-01-12T10:58:17.000Z</time>
      </trkpt>
      <trkpt lat="45.60379" lon="6.6545">
        <ele>1877.5999755859</ele>
        <time>2014-01-12T10:58:22.000Z</time>
      </trkpt>
      <trkpt lat="45.60382" lon="6.65448">
        <ele>1878.4000244141</ele>
        <time>2014-01-12T10:58:28.000Z</time>
      </trkpt>
      <trkpt lat="45.60385" lon="6.65453">
        <ele>1879</ele>
        <time>2014-01-12T10:58:36.000Z</time>
      </trkpt>
      <trkpt lat="45.60386" lon="6.65453">
        <ele>1879.1999511719</ele>
        <time>2014-01-12T10:58:44.000Z</time>
      </trkpt>
      <trkpt lat="45.60387" lon="6.65455">
        <ele>1879.4000244141</ele>
        <time>2014-01-12T10:59:02.000Z</time>
      </trkpt>
      <trkpt lat="45.60389" lon="6.65459">
        <ele>1879.5999755859</ele>
        <time>2014-01-12T10:59:10.000Z</time>
      </trkpt>
      <trkpt lat="45.60391" lon="6.65465">
        <ele>1879.8000488281</ele>
        <time>2014-01-12T10:59:16.000Z</time>
      </trkpt>
      <trkpt lat="45.60393" lon="6.65472">
        <ele>1880</ele>
        <time>2014-01-12T10:59:23.000Z</time>
      </trkpt>
      <trkpt lat="45.60394" lon="6.65478">
        <ele>1879.8000488281</ele>
        <time>2014-01-12T10:59:29.000Z</time>
      </trkpt>
      <trkpt lat="45.60395" lon="6.65485">
        <ele>1879.5999755859</ele>
        <time>2014-01-12T10:59:36.000Z</time>
      </trkpt>
      <trkpt lat="45.60397" lon="6.65493">
        <ele>1879.8000488281</ele>
        <time>2014-01-12T10:59:45.000Z</time>
      </trkpt>
      <trkpt lat="45.60398" lon="6.65495">
        <ele>1879.8000488281</ele>
        <time>2014-01-12T10:59:49.000Z</time>
      </trkpt>
      <trkpt lat="45.60399" lon="6.655">
        <ele>1880</ele>
        <time>2014-01-12T10:59:56.000Z</time>
      </trkpt>
      <trkpt lat="45.604" lon="6.65502">
        <ele>1880.5999755859</ele>
        <time>2014-01-12T11:00:00.000Z</time>
      </trkpt>
      <trkpt lat="45.60404" lon="6.65506">
        <ele>1882.1999511719</ele>
        <time>2014-01-12T11:00:08.000Z</time>
      </trkpt>
      <trkpt lat="45.60408" lon="6.65509">
        <ele>1883.8000488281</ele>
        <time>2014-01-12T11:00:15.000Z</time>
      </trkpt>
      <trkpt lat="45.6041" lon="6.6551">
        <ele>1884.5999755859</ele>
        <time>2014-01-12T11:00:20.000Z</time>
      </trkpt>
      <trkpt lat="45.60413" lon="6.6551">
        <ele>1885.5999755859</ele>
        <time>2014-01-12T11:00:25.000Z</time>
      </trkpt>
      <trkpt lat="45.60417" lon="6.65509">
        <ele>1886.5999755859</ele>
        <time>2014-01-12T11:00:31.000Z</time>
      </trkpt>
      <trkpt lat="45.60422" lon="6.65508">
        <ele>1887.8000488281</ele>
        <time>2014-01-12T11:00:39.000Z</time>
      </trkpt>
      <trkpt lat="45.60425" lon="6.65506">
        <ele>1888.4000244141</ele>
        <time>2014-01-12T11:00:45.000Z</time>
      </trkpt>
      <trkpt lat="45.60428" lon="6.65504">
        <ele>1889.1999511719</ele>
        <time>2014-01-12T11:00:51.000Z</time>
      </trkpt>
      <trkpt lat="45.60432" lon="6.65501">
        <ele>1890.1999511719</ele>
        <time>2014-01-12T11:01:00.000Z</time>
      </trkpt>
      <trkpt lat="45.60435" lon="6.65499">
        <ele>1891.1999511719</ele>
        <time>2014-01-12T11:01:06.000Z</time>
      </trkpt>
      <trkpt lat="45.60438" lon="6.65497">
        <ele>1892</ele>
        <time>2014-01-12T11:01:11.000Z</time>
      </trkpt>
      <trkpt lat="45.60441" lon="6.65496">
        <ele>1893</ele>
        <time>2014-01-12T11:01:16.000Z</time>
      </trkpt>
      <trkpt lat="45.60443" lon="6.65494">
        <ele>1894</ele>
        <time>2014-01-12T11:01:21.000Z</time>
      </trkpt>
      <trkpt lat="45.60447" lon="6.65494">
        <ele>1895.4000244141</ele>
        <time>2014-01-12T11:01:29.000Z</time>
      </trkpt>
      <trkpt lat="45.60451" lon="6.65494">
        <ele>1896.8000488281</ele>
        <time>2014-01-12T11:01:37.000Z</time>
      </trkpt>
      <trkpt lat="45.60455" lon="6.65493">
        <ele>1898</ele>
        <time>2014-01-12T11:01:44.000Z</time>
      </trkpt>
      <trkpt lat="45.60458" lon="6.65492">
        <ele>1899.1999511719</ele>
        <time>2014-01-12T11:01:51.000Z</time>
      </trkpt>
      <trkpt lat="45.60462" lon="6.65492">
        <ele>1900.4000244141</ele>
        <time>2014-01-12T11:01:58.000Z</time>
      </trkpt>
      <trkpt lat="45.60465" lon="6.65491">
        <ele>1901.4000244141</ele>
        <time>2014-01-12T11:02:04.000Z</time>
      </trkpt>
      <trkpt lat="45.60468" lon="6.6549">
        <ele>1902.5999755859</ele>
        <time>2014-01-12T11:02:11.000Z</time>
      </trkpt>
      <trkpt lat="45.60471" lon="6.6549">
        <ele>1903.4000244141</ele>
        <time>2014-01-12T11:02:15.000Z</time>
      </trkpt>
      <trkpt lat="45.60471" lon="6.65495">
        <ele>1903</ele>
        <time>2014-01-12T11:02:20.000Z</time>
      </trkpt>
      <trkpt lat="45.60471" lon="6.65501">
        <ele>1902.8000488281</ele>
        <time>2014-01-12T11:02:28.000Z</time>
      </trkpt>
      <trkpt lat="45.60472" lon="6.65502">
        <ele>1903.4000244141</ele>
        <time>2014-01-12T11:02:32.000Z</time>
      </trkpt>
      <trkpt lat="45.60475" lon="6.65503">
        <ele>1904.4000244141</ele>
        <time>2014-01-12T11:02:37.000Z</time>
      </trkpt>
      <trkpt lat="45.60477" lon="6.65503">
        <ele>1905</ele>
        <time>2014-01-12T11:02:41.000Z</time>
      </trkpt>
      <trkpt lat="45.6048" lon="6.65503">
        <ele>1905.8000488281</ele>
        <time>2014-01-12T11:02:45.000Z</time>
      </trkpt>
      <trkpt lat="45.60481" lon="6.65503">
        <ele>1906.4000244141</ele>
        <time>2014-01-12T11:02:54.000Z</time>
      </trkpt>
      <trkpt lat="45.60481" lon="6.65503">
        <ele>1906.4000244141</ele>
        <time>2014-01-12T11:03:04.000Z</time>
      </trkpt>
      <trkpt lat="45.60483" lon="6.65503">
        <ele>1906.8000488281</ele>
        <time>2014-01-12T11:03:10.000Z</time>
      </trkpt>
      <trkpt lat="45.60486" lon="6.65503">
        <ele>1908</ele>
        <time>2014-01-12T11:03:18.000Z</time>
      </trkpt>
      <trkpt lat="45.60487" lon="6.65503">
        <ele>1908.1999511719</ele>
        <time>2014-01-12T11:03:24.000Z</time>
      </trkpt>
      <trkpt lat="45.60489" lon="6.655">
        <ele>1908.5999755859</ele>
        <time>2014-01-12T11:03:29.000Z</time>
      </trkpt>
      <trkpt lat="45.6049" lon="6.655">
        <ele>1908.8000488281</ele>
        <time>2014-01-12T11:03:38.000Z</time>
      </trkpt>
      <trkpt lat="45.60488" lon="6.65497">
        <ele>1908.1999511719</ele>
        <time>2014-01-12T11:04:10.000Z</time>
      </trkpt>
      <trkpt lat="45.60489" lon="6.655">
        <ele>1908.5999755859</ele>
        <time>2014-01-12T11:04:58.000Z</time>
      </trkpt>
      <trkpt lat="45.60488" lon="6.655">
        <ele>1908.1999511719</ele>
        <time>2014-01-12T11:05:25.000Z</time>
      </trkpt>
      <trkpt lat="45.60488" lon="6.655">
        <ele>1908.1999511719</ele>
        <time>2014-01-12T11:06:00.000Z</time>
      </trkpt>
      <trkpt lat="45.60491" lon="6.65501">
        <ele>1909.4000244141</ele>
        <time>2014-01-12T11:06:35.000Z</time>
      </trkpt>
      <trkpt lat="45.6049" lon="6.65505">
        <ele>1909.4000244141</ele>
        <time>2014-01-12T11:15:26.000Z</time>
      </trkpt>
      <trkpt lat="45.6049" lon="6.65507">
        <ele>1909.5999755859</ele>
        <time>2014-01-12T11:15:44.000Z</time>
      </trkpt>
      <trkpt lat="45.6049" lon="6.65513">
        <ele>1910.5999755859</ele>
        <time>2014-01-12T11:16:51.000Z</time>
      </trkpt>
      <trkpt lat="45.60489" lon="6.65515">
        <ele>1910.5999755859</ele>
        <time>2014-01-12T11:17:12.000Z</time>
      </trkpt>
      <trkpt lat="45.60489" lon="6.65517">
        <ele>1911</ele>
        <time>2014-01-12T11:17:17.000Z</time>
      </trkpt>
      <trkpt lat="45.60488" lon="6.65518">
        <ele>1910.5999755859</ele>
        <time>2014-01-12T11:17:31.000Z</time>
      </trkpt>
      <trkpt lat="45.60491" lon="6.65523">
        <ele>1912.4000244141</ele>
        <time>2014-01-12T11:18:28.000Z</time>
      </trkpt>
      <trkpt lat="45.6049" lon="6.65528">
        <ele>1913</ele>
        <time>2014-01-12T11:18:34.000Z</time>
      </trkpt>
      <trkpt lat="45.6049" lon="6.65532">
        <ele>1913.5999755859</ele>
        <time>2014-01-12T11:18:40.000Z</time>
      </trkpt>
      <trkpt lat="45.60491" lon="6.65539">
        <ele>1915</ele>
        <time>2014-01-12T11:18:48.000Z</time>
      </trkpt>
      <trkpt lat="45.60492" lon="6.65546">
        <ele>1916</ele>
        <time>2014-01-12T11:18:57.000Z</time>
      </trkpt>
      <trkpt lat="45.60492" lon="6.65548">
        <ele>1916.5999755859</ele>
        <time>2014-01-12T11:19:01.000Z</time>
      </trkpt>
      <trkpt lat="45.60494" lon="6.6555">
        <ele>1917.1999511719</ele>
        <time>2014-01-12T11:19:05.000Z</time>
      </trkpt>
      <trkpt lat="45.60496" lon="6.65552">
        <ele>1918.1999511719</ele>
        <time>2014-01-12T11:19:10.000Z</time>
      </trkpt>
      <trkpt lat="45.60498" lon="6.65552">
        <ele>1919</ele>
        <time>2014-01-12T11:19:14.000Z</time>
      </trkpt>
      <trkpt lat="45.60501" lon="6.65552">
        <ele>1920</ele>
        <time>2014-01-12T11:19:19.000Z</time>
      </trkpt>
      <trkpt lat="45.60503" lon="6.65552">
        <ele>1920.8000488281</ele>
        <time>2014-01-12T11:19:23.000Z</time>
      </trkpt>
      <trkpt lat="45.60505" lon="6.65551">
        <ele>1921.1999511719</ele>
        <time>2014-01-12T11:19:28.000Z</time>
      </trkpt>
      <trkpt lat="45.60507" lon="6.65551">
        <ele>1922</ele>
        <time>2014-01-12T11:19:34.000Z</time>
      </trkpt>
      <trkpt lat="45.60509" lon="6.6555">
        <ele>1922.4000244141</ele>
        <time>2014-01-12T11:19:38.000Z</time>
      </trkpt>
      <trkpt lat="45.6051" lon="6.65549">
        <ele>1923.1999511719</ele>
        <time>2014-01-12T11:19:43.000Z</time>
      </trkpt>
      <trkpt lat="45.60513" lon="6.65549">
        <ele>1924</ele>
        <time>2014-01-12T11:19:48.000Z</time>
      </trkpt>
      <trkpt lat="45.60513" lon="6.65552">
        <ele>1924.4000244141</ele>
        <time>2014-01-12T11:19:58.000Z</time>
      </trkpt>
      <trkpt lat="45.6051" lon="6.65557">
        <ele>1924</ele>
        <time>2014-01-12T11:20:05.000Z</time>
      </trkpt>
      <trkpt lat="45.60508" lon="6.65561">
        <ele>1923.8000488281</ele>
        <time>2014-01-12T11:20:11.000Z</time>
      </trkpt>
      <trkpt lat="45.60507" lon="6.65563">
        <ele>1923.8000488281</ele>
        <time>2014-01-12T11:20:16.000Z</time>
      </trkpt>
      <trkpt lat="45.60506" lon="6.65566">
        <ele>1923.5999755859</ele>
        <time>2014-01-12T11:20:21.000Z</time>
      </trkpt>
      <trkpt lat="45.60505" lon="6.65569">
        <ele>1923.5999755859</ele>
        <time>2014-01-12T11:20:26.000Z</time>
      </trkpt>
      <trkpt lat="45.60503" lon="6.65572">
        <ele>1923.4000244141</ele>
        <time>2014-01-12T11:20:31.000Z</time>
      </trkpt>
      <trkpt lat="45.605" lon="6.65578">
        <ele>1923</ele>
        <time>2014-01-12T11:20:40.000Z</time>
      </trkpt>
      <trkpt lat="45.60499" lon="6.6558">
        <ele>1923.1999511719</ele>
        <time>2014-01-12T11:20:45.000Z</time>
      </trkpt>
      <trkpt lat="45.60498" lon="6.65582">
        <ele>1923</ele>
        <time>2014-01-12T11:20:55.000Z</time>
      </trkpt>
      <trkpt lat="45.60494" lon="6.65588">
        <ele>1922.8000488281</ele>
        <time>2014-01-12T11:21:04.000Z</time>
      </trkpt>
      <trkpt lat="45.60494" lon="6.6559">
        <ele>1922.8000488281</ele>
        <time>2014-01-12T11:21:08.000Z</time>
      </trkpt>
      <trkpt lat="45.60492" lon="6.65592">
        <ele>1922.8000488281</ele>
        <time>2014-01-12T11:21:13.000Z</time>
      </trkpt>
      <trkpt lat="45.60491" lon="6.65594">
        <ele>1922.8000488281</ele>
        <time>2014-01-12T11:21:17.000Z</time>
      </trkpt>
      <trkpt lat="45.6049" lon="6.65597">
        <ele>1922.5999755859</ele>
        <time>2014-01-12T11:21:22.000Z</time>
      </trkpt>
      <trkpt lat="45.60488" lon="6.65604">
        <ele>1922.8000488281</ele>
        <time>2014-01-12T11:21:30.000Z</time>
      </trkpt>
      <trkpt lat="45.60488" lon="6.65604">
        <ele>1923</ele>
        <time>2014-01-12T11:22:23.000Z</time>
      </trkpt>
      <trkpt lat="45.60488" lon="6.65602">
        <ele>1922.8000488281</ele>
        <time>2014-01-12T11:23:35.000Z</time>
      </trkpt>
      <trkpt lat="45.60488" lon="6.65605">
        <ele>1923.4000244141</ele>
        <time>2014-01-12T11:24:09.000Z</time>
      </trkpt>
      <trkpt lat="45.60486" lon="6.65611">
        <ele>1923.4000244141</ele>
        <time>2014-01-12T11:24:15.000Z</time>
      </trkpt>
      <trkpt lat="45.60484" lon="6.65618">
        <ele>1923.8000488281</ele>
        <time>2014-01-12T11:24:23.000Z</time>
      </trkpt>
      <trkpt lat="45.60484" lon="6.65623">
        <ele>1924.4000244141</ele>
        <time>2014-01-12T11:24:31.000Z</time>
      </trkpt>
      <trkpt lat="45.60486" lon="6.65623">
        <ele>1925</ele>
        <time>2014-01-12T11:24:36.000Z</time>
      </trkpt>
      <trkpt lat="45.60489" lon="6.65623">
        <ele>1925.8000488281</ele>
        <time>2014-01-12T11:24:42.000Z</time>
      </trkpt>
      <trkpt lat="45.60493" lon="6.65622">
        <ele>1927.1999511719</ele>
        <time>2014-01-12T11:24:49.000Z</time>
      </trkpt>
      <trkpt lat="45.60497" lon="6.65623">
        <ele>1928.1999511719</ele>
        <time>2014-01-12T11:24:57.000Z</time>
      </trkpt>
      <trkpt lat="45.605" lon="6.65623">
        <ele>1929</ele>
        <time>2014-01-12T11:25:03.000Z</time>
      </trkpt>
      <trkpt lat="45.60501" lon="6.65623">
        <ele>1929.5999755859</ele>
        <time>2014-01-12T11:25:09.000Z</time>
      </trkpt>
      <trkpt lat="45.60507" lon="6.65623">
        <ele>1931.1999511719</ele>
        <time>2014-01-12T11:25:18.000Z</time>
      </trkpt>
      <trkpt lat="45.60512" lon="6.65624">
        <ele>1932.8000488281</ele>
        <time>2014-01-12T11:25:26.000Z</time>
      </trkpt>
      <trkpt lat="45.60517" lon="6.65626">
        <ele>1934.4000244141</ele>
        <time>2014-01-12T11:25:34.000Z</time>
      </trkpt>
      <trkpt lat="45.60521" lon="6.65626">
        <ele>1935.5999755859</ele>
        <time>2014-01-12T11:25:40.000Z</time>
      </trkpt>
      <trkpt lat="45.60525" lon="6.65627">
        <ele>1936.8000488281</ele>
        <time>2014-01-12T11:25:46.000Z</time>
      </trkpt>
      <trkpt lat="45.6053" lon="6.65628">
        <ele>1938.4000244141</ele>
        <time>2014-01-12T11:25:54.000Z</time>
      </trkpt>
      <trkpt lat="45.60535" lon="6.6563">
        <ele>1940</ele>
        <time>2014-01-12T11:26:02.000Z</time>
      </trkpt>
      <trkpt lat="45.60538" lon="6.65633">
        <ele>1941</ele>
        <time>2014-01-12T11:26:08.000Z</time>
      </trkpt>
      <trkpt lat="45.6054" lon="6.65637">
        <ele>1942.1999511719</ele>
        <time>2014-01-12T11:26:16.000Z</time>
      </trkpt>
      <trkpt lat="45.60542" lon="6.6564">
        <ele>1942.8000488281</ele>
        <time>2014-01-12T11:26:21.000Z</time>
      </trkpt>
      <trkpt lat="45.60544" lon="6.65645">
        <ele>1943.8000488281</ele>
        <time>2014-01-12T11:26:29.000Z</time>
      </trkpt>
      <trkpt lat="45.60545" lon="6.6565">
        <ele>1944.5999755859</ele>
        <time>2014-01-12T11:26:37.000Z</time>
      </trkpt>
      <trkpt lat="45.60547" lon="6.65655">
        <ele>1945.1999511719</ele>
        <time>2014-01-12T11:26:45.000Z</time>
      </trkpt>
      <trkpt lat="45.60547" lon="6.65657">
        <ele>1945.4000244141</ele>
        <time>2014-01-12T11:26:49.000Z</time>
      </trkpt>
      <trkpt lat="45.60548" lon="6.65659">
        <ele>1945.8000488281</ele>
        <time>2014-01-12T11:26:56.000Z</time>
      </trkpt>
      <trkpt lat="45.6055" lon="6.65661">
        <ele>1946.4000244141</ele>
        <time>2014-01-12T11:27:02.000Z</time>
      </trkpt>
      <trkpt lat="45.60552" lon="6.65662">
        <ele>1947</ele>
        <time>2014-01-12T11:27:07.000Z</time>
      </trkpt>
      <trkpt lat="45.60553" lon="6.65663">
        <ele>1947.4000244141</ele>
        <time>2014-01-12T11:27:12.000Z</time>
      </trkpt>
      <trkpt lat="45.60555" lon="6.65663">
        <ele>1948</ele>
        <time>2014-01-12T11:27:17.000Z</time>
      </trkpt>
      <trkpt lat="45.60557" lon="6.65664">
        <ele>1948.4000244141</ele>
        <time>2014-01-12T11:27:21.000Z</time>
      </trkpt>
      <trkpt lat="45.60558" lon="6.65664">
        <ele>1948.8000488281</ele>
        <time>2014-01-12T11:27:25.000Z</time>
      </trkpt>
      <trkpt lat="45.60559" lon="6.65665">
        <ele>1949.1999511719</ele>
        <time>2014-01-12T11:27:29.000Z</time>
      </trkpt>
      <trkpt lat="45.60561" lon="6.65665">
        <ele>1949.5999755859</ele>
        <time>2014-01-12T11:27:34.000Z</time>
      </trkpt>
      <trkpt lat="45.60562" lon="6.65666">
        <ele>1950</ele>
        <time>2014-01-12T11:27:38.000Z</time>
      </trkpt>
      <trkpt lat="45.60564" lon="6.65666">
        <ele>1950.4000244141</ele>
        <time>2014-01-12T11:27:43.000Z</time>
      </trkpt>
      <trkpt lat="45.60566" lon="6.65667">
        <ele>1951</ele>
        <time>2014-01-12T11:27:48.000Z</time>
      </trkpt>
      <trkpt lat="45.60568" lon="6.65667">
        <ele>1951.4000244141</ele>
        <time>2014-01-12T11:27:52.000Z</time>
      </trkpt>
      <trkpt lat="45.6057" lon="6.65668">
        <ele>1952.1999511719</ele>
        <time>2014-01-12T11:27:57.000Z</time>
      </trkpt>
      <trkpt lat="45.6057" lon="6.6567">
        <ele>1952.5999755859</ele>
        <time>2014-01-12T11:28:01.000Z</time>
      </trkpt>
      <trkpt lat="45.60568" lon="6.65674">
        <ele>1953</ele>
        <time>2014-01-12T11:28:08.000Z</time>
      </trkpt>
      <trkpt lat="45.60566" lon="6.65677">
        <ele>1953.4000244141</ele>
        <time>2014-01-12T11:28:15.000Z</time>
      </trkpt>
      <trkpt lat="45.60565" lon="6.6568">
        <ele>1953.5999755859</ele>
        <time>2014-01-12T11:28:20.000Z</time>
      </trkpt>
      <trkpt lat="45.60563" lon="6.65683">
        <ele>1954</ele>
        <time>2014-01-12T11:28:25.000Z</time>
      </trkpt>
      <trkpt lat="45.60561" lon="6.65686">
        <ele>1954.1999511719</ele>
        <time>2014-01-12T11:28:31.000Z</time>
      </trkpt>
      <trkpt lat="45.60557" lon="6.65689">
        <ele>1954</ele>
        <time>2014-01-12T11:28:39.000Z</time>
      </trkpt>
      <trkpt lat="45.60555" lon="6.65692">
        <ele>1954</ele>
        <time>2014-01-12T11:28:45.000Z</time>
      </trkpt>
      <trkpt lat="45.60551" lon="6.65695">
        <ele>1953.8000488281</ele>
        <time>2014-01-12T11:28:52.000Z</time>
      </trkpt>
      <trkpt lat="45.60548" lon="6.65698">
        <ele>1953.8000488281</ele>
        <time>2014-01-12T11:28:59.000Z</time>
      </trkpt>
      <trkpt lat="45.60545" lon="6.657">
        <ele>1953.5999755859</ele>
        <time>2014-01-12T11:29:05.000Z</time>
      </trkpt>
      <trkpt lat="45.60543" lon="6.65702">
        <ele>1953.5999755859</ele>
        <time>2014-01-12T11:29:10.000Z</time>
      </trkpt>
      <trkpt lat="45.60541" lon="6.65704">
        <ele>1953.4000244141</ele>
        <time>2014-01-12T11:29:15.000Z</time>
      </trkpt>
      <trkpt lat="45.60539" lon="6.65707">
        <ele>1953.5999755859</ele>
        <time>2014-01-12T11:29:20.000Z</time>
      </trkpt>
      <trkpt lat="45.60538" lon="6.65707">
        <ele>1953.5999755859</ele>
        <time>2014-01-12T11:29:28.000Z</time>
      </trkpt>
      <trkpt lat="45.60534" lon="6.65712">
        <ele>1953.5999755859</ele>
        <time>2014-01-12T11:29:36.000Z</time>
      </trkpt>
      <trkpt lat="45.6053" lon="6.65717">
        <ele>1954</ele>
        <time>2014-01-12T11:29:44.000Z</time>
      </trkpt>
      <trkpt lat="45.60527" lon="6.6572">
        <ele>1954</ele>
        <time>2014-01-12T11:29:49.000Z</time>
      </trkpt>
      <trkpt lat="45.60523" lon="6.65725">
        <ele>1954</ele>
        <time>2014-01-12T11:29:56.000Z</time>
      </trkpt>
      <trkpt lat="45.6052" lon="6.6573">
        <ele>1954.4000244141</ele>
        <time>2014-01-12T11:30:04.000Z</time>
      </trkpt>
      <trkpt lat="45.60518" lon="6.65733">
        <ele>1954.5999755859</ele>
        <time>2014-01-12T11:30:10.000Z</time>
      </trkpt>
      <trkpt lat="45.60516" lon="6.65737">
        <ele>1955</ele>
        <time>2014-01-12T11:30:16.000Z</time>
      </trkpt>
      <trkpt lat="45.60516" lon="6.6574">
        <ele>1955.5999755859</ele>
        <time>2014-01-12T11:30:22.000Z</time>
      </trkpt>
      <trkpt lat="45.60515" lon="6.65743">
        <ele>1956.1999511719</ele>
        <time>2014-01-12T11:30:28.000Z</time>
      </trkpt>
      <trkpt lat="45.60515" lon="6.65747">
        <ele>1957</ele>
        <time>2014-01-12T11:30:34.000Z</time>
      </trkpt>
      <trkpt lat="45.60517" lon="6.65749">
        <ele>1958.1999511719</ele>
        <time>2014-01-12T11:30:41.000Z</time>
      </trkpt>
      <trkpt lat="45.60524" lon="6.65751">
        <ele>1960.4000244141</ele>
        <time>2014-01-12T11:30:53.000Z</time>
      </trkpt>
      <trkpt lat="45.60528" lon="6.65752">
        <ele>1961.5999755859</ele>
        <time>2014-01-12T11:31:00.000Z</time>
      </trkpt>
      <trkpt lat="45.60532" lon="6.65754">
        <ele>1963</ele>
        <time>2014-01-12T11:31:08.000Z</time>
      </trkpt>
      <trkpt lat="45.60535" lon="6.65756">
        <ele>1964</ele>
        <time>2014-01-12T11:31:13.000Z</time>
      </trkpt>
      <trkpt lat="45.60538" lon="6.65757">
        <ele>1965</ele>
        <time>2014-01-12T11:31:19.000Z</time>
      </trkpt>
      <trkpt lat="45.6054" lon="6.65759">
        <ele>1965.8000488281</ele>
        <time>2014-01-12T11:31:24.000Z</time>
      </trkpt>
      <trkpt lat="45.6054" lon="6.65761">
        <ele>1966.4000244141</ele>
        <time>2014-01-12T11:31:34.000Z</time>
      </trkpt>
      <trkpt lat="45.60542" lon="6.65761">
        <ele>1966.8000488281</ele>
        <time>2014-01-12T11:31:51.000Z</time>
      </trkpt>
      <trkpt lat="45.60544" lon="6.65763">
        <ele>1967.4000244141</ele>
        <time>2014-01-12T11:31:55.000Z</time>
      </trkpt>
      <trkpt lat="45.60545" lon="6.65764">
        <ele>1968.1999511719</ele>
        <time>2014-01-12T11:31:59.000Z</time>
      </trkpt>
      <trkpt lat="45.60548" lon="6.65766">
        <ele>1969.4000244141</ele>
        <time>2014-01-12T11:32:06.000Z</time>
      </trkpt>
      <trkpt lat="45.6055" lon="6.65768">
        <ele>1970.1999511719</ele>
        <time>2014-01-12T11:32:10.000Z</time>
      </trkpt>
      <trkpt lat="45.60552" lon="6.6577">
        <ele>1971</ele>
        <time>2014-01-12T11:32:15.000Z</time>
      </trkpt>
      <trkpt lat="45.60555" lon="6.65773">
        <ele>1972.4000244141</ele>
        <time>2014-01-12T11:32:22.000Z</time>
      </trkpt>
      <trkpt lat="45.60558" lon="6.65777">
        <ele>1974</ele>
        <time>2014-01-12T11:32:30.000Z</time>
      </trkpt>
      <trkpt lat="45.6056" lon="6.65778">
        <ele>1974.5999755859</ele>
        <time>2014-01-12T11:32:34.000Z</time>
      </trkpt>
      <trkpt lat="45.60563" lon="6.6578">
        <ele>1975.8000488281</ele>
        <time>2014-01-12T11:32:41.000Z</time>
      </trkpt>
      <trkpt lat="45.60564" lon="6.65782">
        <ele>1976.8000488281</ele>
        <time>2014-01-12T11:32:46.000Z</time>
      </trkpt>
      <trkpt lat="45.60565" lon="6.65785">
        <ele>1977.4000244141</ele>
        <time>2014-01-12T11:32:50.000Z</time>
      </trkpt>
      <trkpt lat="45.60564" lon="6.6579">
        <ele>1978.1999511719</ele>
        <time>2014-01-12T11:32:56.000Z</time>
      </trkpt>
      <trkpt lat="45.60562" lon="6.65798">
        <ele>1979.1999511719</ele>
        <time>2014-01-12T11:33:05.000Z</time>
      </trkpt>
      <trkpt lat="45.60561" lon="6.65801">
        <ele>1979.5999755859</ele>
        <time>2014-01-12T11:33:10.000Z</time>
      </trkpt>
      <trkpt lat="45.60559" lon="6.65806">
        <ele>1980.1999511719</ele>
        <time>2014-01-12T11:33:16.000Z</time>
      </trkpt>
      <trkpt lat="45.60557" lon="6.65812">
        <ele>1980.8000488281</ele>
        <time>2014-01-12T11:33:23.000Z</time>
      </trkpt>
      <trkpt lat="45.60556" lon="6.65816">
        <ele>1981.4000244141</ele>
        <time>2014-01-12T11:33:29.000Z</time>
      </trkpt>
      <trkpt lat="45.60554" lon="6.65822">
        <ele>1982</ele>
        <time>2014-01-12T11:33:36.000Z</time>
      </trkpt>
      <trkpt lat="45.60553" lon="6.65827">
        <ele>1982.8000488281</ele>
        <time>2014-01-12T11:33:42.000Z</time>
      </trkpt>
      <trkpt lat="45.60552" lon="6.65835">
        <ele>1984</ele>
        <time>2014-01-12T11:33:52.000Z</time>
      </trkpt>
      <trkpt lat="45.60551" lon="6.65841">
        <ele>1984.4000244141</ele>
        <time>2014-01-12T11:34:01.000Z</time>
      </trkpt>
      <trkpt lat="45.60552" lon="6.65846">
        <ele>1985</ele>
        <time>2014-01-12T11:34:08.000Z</time>
      </trkpt>
      <trkpt lat="45.60552" lon="6.65852">
        <ele>1985.5999755859</ele>
        <time>2014-01-12T11:34:16.000Z</time>
      </trkpt>
      <trkpt lat="45.60552" lon="6.65854">
        <ele>1986</ele>
        <time>2014-01-12T11:34:20.000Z</time>
      </trkpt>
      <trkpt lat="45.60553" lon="6.65857">
        <ele>1986.5999755859</ele>
        <time>2014-01-12T11:34:25.000Z</time>
      </trkpt>
      <trkpt lat="45.60556" lon="6.65862">
        <ele>1988</ele>
        <time>2014-01-12T11:34:33.000Z</time>
      </trkpt>
      <trkpt lat="45.60558" lon="6.65865">
        <ele>1988.8000488281</ele>
        <time>2014-01-12T11:34:38.000Z</time>
      </trkpt>
      <trkpt lat="45.6056" lon="6.65867">
        <ele>1989.4000244141</ele>
        <time>2014-01-12T11:34:43.000Z</time>
      </trkpt>
      <trkpt lat="45.60564" lon="6.65872">
        <ele>1991</ele>
        <time>2014-01-12T11:34:54.000Z</time>
      </trkpt>
      <trkpt lat="45.60568" lon="6.65878">
        <ele>1992.8000488281</ele>
        <time>2014-01-12T11:35:04.000Z</time>
      </trkpt>
      <trkpt lat="45.60571" lon="6.65882">
        <ele>1994</ele>
        <time>2014-01-12T11:35:11.000Z</time>
      </trkpt>
      <trkpt lat="45.60573" lon="6.65884">
        <ele>1994.8000488281</ele>
        <time>2014-01-12T11:35:16.000Z</time>
      </trkpt>
      <trkpt lat="45.60577" lon="6.65889">
        <ele>1996.1999511719</ele>
        <time>2014-01-12T11:35:24.000Z</time>
      </trkpt>
      <trkpt lat="45.60581" lon="6.65895">
        <ele>1998</ele>
        <time>2014-01-12T11:35:34.000Z</time>
      </trkpt>
      <trkpt lat="45.60584" lon="6.65899">
        <ele>1999.4000244141</ele>
        <time>2014-01-12T11:35:43.000Z</time>
      </trkpt>
      <trkpt lat="45.60586" lon="6.65901">
        <ele>2000</ele>
        <time>2014-01-12T11:35:47.000Z</time>
      </trkpt>
      <trkpt lat="45.60587" lon="6.65903">
        <ele>2000.5999755859</ele>
        <time>2014-01-12T11:35:51.000Z</time>
      </trkpt>
      <trkpt lat="45.60589" lon="6.65905">
        <ele>2001.4000244141</ele>
        <time>2014-01-12T11:35:57.000Z</time>
      </trkpt>
      <trkpt lat="45.60591" lon="6.65908">
        <ele>2002.1999511719</ele>
        <time>2014-01-12T11:36:03.000Z</time>
      </trkpt>
      <trkpt lat="45.60594" lon="6.65913">
        <ele>2003.5999755859</ele>
        <time>2014-01-12T11:36:12.000Z</time>
      </trkpt>
      <trkpt lat="45.60595" lon="6.65915">
        <ele>2004.1999511719</ele>
        <time>2014-01-12T11:36:16.000Z</time>
      </trkpt>
      <trkpt lat="45.60596" lon="6.65918">
        <ele>2004.8000488281</ele>
        <time>2014-01-12T11:36:21.000Z</time>
      </trkpt>
      <trkpt lat="45.60599" lon="6.65922">
        <ele>2005.5999755859</ele>
        <time>2014-01-12T11:36:30.000Z</time>
      </trkpt>
      <trkpt lat="45.60601" lon="6.65927">
        <ele>2006.1999511719</ele>
        <time>2014-01-12T11:36:37.000Z</time>
      </trkpt>
      <trkpt lat="45.60604" lon="6.65931">
        <ele>2007</ele>
        <time>2014-01-12T11:36:44.000Z</time>
      </trkpt>
      <trkpt lat="45.60605" lon="6.65933">
        <ele>2007.4000244141</ele>
        <time>2014-01-12T11:36:49.000Z</time>
      </trkpt>
      <trkpt lat="45.60606" lon="6.65935">
        <ele>2007.8000488281</ele>
        <time>2014-01-12T11:36:53.000Z</time>
      </trkpt>
      <trkpt lat="45.60609" lon="6.65939">
        <ele>2008.8000488281</ele>
        <time>2014-01-12T11:37:01.000Z</time>
      </trkpt>
      <trkpt lat="45.60612" lon="6.65943">
        <ele>2009.5999755859</ele>
        <time>2014-01-12T11:37:09.000Z</time>
      </trkpt>
      <trkpt lat="45.60616" lon="6.65947">
        <ele>2010.8000488281</ele>
        <time>2014-01-12T11:37:17.000Z</time>
      </trkpt>
      <trkpt lat="45.60618" lon="6.6595">
        <ele>2011.5999755859</ele>
        <time>2014-01-12T11:37:24.000Z</time>
      </trkpt>
      <trkpt lat="45.6062" lon="6.65951">
        <ele>2012.1999511719</ele>
        <time>2014-01-12T11:37:28.000Z</time>
      </trkpt>
      <trkpt lat="45.60623" lon="6.65954">
        <ele>2013</ele>
        <time>2014-01-12T11:37:35.000Z</time>
      </trkpt>
      <trkpt lat="45.60627" lon="6.65956">
        <ele>2014.1999511719</ele>
        <time>2014-01-12T11:37:44.000Z</time>
      </trkpt>
      <trkpt lat="45.60629" lon="6.65958">
        <ele>2015</ele>
        <time>2014-01-12T11:37:50.000Z</time>
      </trkpt>
      <trkpt lat="45.60631" lon="6.65959">
        <ele>2015.8000488281</ele>
        <time>2014-01-12T11:37:55.000Z</time>
      </trkpt>
      <trkpt lat="45.60633" lon="6.6596">
        <ele>2016.1999511719</ele>
        <time>2014-01-12T11:37:59.000Z</time>
      </trkpt>
      <trkpt lat="45.60635" lon="6.65961">
        <ele>2016.8000488281</ele>
        <time>2014-01-12T11:38:04.000Z</time>
      </trkpt>
      <trkpt lat="45.60637" lon="6.65962">
        <ele>2017.5999755859</ele>
        <time>2014-01-12T11:38:09.000Z</time>
      </trkpt>
      <trkpt lat="45.6064" lon="6.65964">
        <ele>2018.4000244141</ele>
        <time>2014-01-12T11:38:15.000Z</time>
      </trkpt>
      <trkpt lat="45.60642" lon="6.65965">
        <ele>2019</ele>
        <time>2014-01-12T11:38:19.000Z</time>
      </trkpt>
      <trkpt lat="45.60644" lon="6.65965">
        <ele>2019.8000488281</ele>
        <time>2014-01-12T11:38:24.000Z</time>
      </trkpt>
      <trkpt lat="45.60646" lon="6.65966">
        <ele>2020.4000244141</ele>
        <time>2014-01-12T11:38:28.000Z</time>
      </trkpt>
      <trkpt lat="45.6065" lon="6.65968">
        <ele>2021.5999755859</ele>
        <time>2014-01-12T11:38:35.000Z</time>
      </trkpt>
      <trkpt lat="45.60651" lon="6.65968">
        <ele>2022.1999511719</ele>
        <time>2014-01-12T11:38:40.000Z</time>
      </trkpt>
      <trkpt lat="45.60652" lon="6.65965">
        <ele>2022.1999511719</ele>
        <time>2014-01-12T11:38:46.000Z</time>
      </trkpt>
      <trkpt lat="45.60652" lon="6.65961">
        <ele>2022</ele>
        <time>2014-01-12T11:38:52.000Z</time>
      </trkpt>
      <trkpt lat="45.60652" lon="6.65958">
        <ele>2022</ele>
        <time>2014-01-12T11:38:57.000Z</time>
      </trkpt>
      <trkpt lat="45.60652" lon="6.65955">
        <ele>2021.8000488281</ele>
        <time>2014-01-12T11:39:02.000Z</time>
      </trkpt>
      <trkpt lat="45.60652" lon="6.65952">
        <ele>2021.8000488281</ele>
        <time>2014-01-12T11:39:06.000Z</time>
      </trkpt>
      <trkpt lat="45.60651" lon="6.65949">
        <ele>2021.4000244141</ele>
        <time>2014-01-12T11:39:11.000Z</time>
      </trkpt>
      <trkpt lat="45.6065" lon="6.65946">
        <ele>2021</ele>
        <time>2014-01-12T11:39:16.000Z</time>
      </trkpt>
      <trkpt lat="45.60649" lon="6.65943">
        <ele>2020.8000488281</ele>
        <time>2014-01-12T11:39:21.000Z</time>
      </trkpt>
      <trkpt lat="45.60649" lon="6.6594">
        <ele>2020.5999755859</ele>
        <time>2014-01-12T11:39:26.000Z</time>
      </trkpt>
      <trkpt lat="45.60649" lon="6.65938">
        <ele>2020.4000244141</ele>
        <time>2014-01-12T11:39:32.000Z</time>
      </trkpt>
      <trkpt lat="45.60651" lon="6.65938">
        <ele>2021</ele>
        <time>2014-01-12T11:39:39.000Z</time>
      </trkpt>
      <trkpt lat="45.60653" lon="6.65939">
        <ele>2021.5999755859</ele>
        <time>2014-01-12T11:39:46.000Z</time>
      </trkpt>
      <trkpt lat="45.60655" lon="6.6594">
        <ele>2022.4000244141</ele>
        <time>2014-01-12T11:39:52.000Z</time>
      </trkpt>
      <trkpt lat="45.60657" lon="6.65941">
        <ele>2023</ele>
        <time>2014-01-12T11:39:57.000Z</time>
      </trkpt>
      <trkpt lat="45.60659" lon="6.65942">
        <ele>2023.8000488281</ele>
        <time>2014-01-12T11:40:03.000Z</time>
      </trkpt>
      <trkpt lat="45.60661" lon="6.65943">
        <ele>2024.4000244141</ele>
        <time>2014-01-12T11:40:08.000Z</time>
      </trkpt>
      <trkpt lat="45.60663" lon="6.65943">
        <ele>2025</ele>
        <time>2014-01-12T11:40:14.000Z</time>
      </trkpt>
      <trkpt lat="45.60665" lon="6.65944">
        <ele>2025.4000244141</ele>
        <time>2014-01-12T11:40:19.000Z</time>
      </trkpt>
      <trkpt lat="45.60667" lon="6.65944">
        <ele>2026</ele>
        <time>2014-01-12T11:40:25.000Z</time>
      </trkpt>
      <trkpt lat="45.60668" lon="6.65943">
        <ele>2026.4000244141</ele>
        <time>2014-01-12T11:40:31.000Z</time>
      </trkpt>
      <trkpt lat="45.60667" lon="6.6594">
        <ele>2026</ele>
        <time>2014-01-12T11:40:40.000Z</time>
      </trkpt>
      <trkpt lat="45.60667" lon="6.6594">
        <ele>2025.8000488281</ele>
        <time>2014-01-12T11:43:07.000Z</time>
      </trkpt>
      <trkpt lat="45.60667" lon="6.65938">
        <ele>2025.8000488281</ele>
        <time>2014-01-12T11:43:40.000Z</time>
      </trkpt>
      <trkpt lat="45.60667" lon="6.65939">
        <ele>2025.8000488281</ele>
        <time>2014-01-12T11:44:00.000Z</time>
      </trkpt>
      <trkpt lat="45.60667" lon="6.65939">
        <ele>2026</ele>
        <time>2014-01-12T11:45:36.000Z</time>
      </trkpt>
      <trkpt lat="45.60666" lon="6.65938">
        <ele>2025.8000488281</ele>
        <time>2014-01-12T11:46:15.000Z</time>
      </trkpt>
      <trkpt lat="45.60666" lon="6.6594">
        <ele>2025.5999755859</ele>
        <time>2014-01-12T11:47:17.000Z</time>
      </trkpt>
      <trkpt lat="45.60667" lon="6.6594">
        <ele>2025.8000488281</ele>
        <time>2014-01-12T11:47:25.000Z</time>
      </trkpt>
      <trkpt lat="45.60667" lon="6.65941">
        <ele>2026</ele>
        <time>2014-01-12T11:48:34.000Z</time>
      </trkpt>
      <trkpt lat="45.60666" lon="6.65939">
        <ele>2025.5999755859</ele>
        <time>2014-01-12T11:48:39.000Z</time>
      </trkpt>
      <trkpt lat="45.60663" lon="6.65938">
        <ele>2024.8000488281</ele>
        <time>2014-01-12T11:48:47.000Z</time>
      </trkpt>
      <trkpt lat="45.60663" lon="6.65938">
        <ele>2024.8000488281</ele>
        <time>2014-01-12T11:48:56.000Z</time>
      </trkpt>
      <trkpt lat="45.60663" lon="6.65939">
        <ele>2024.8000488281</ele>
        <time>2014-01-12T11:49:10.000Z</time>
      </trkpt>
      <trkpt lat="45.60664" lon="6.65941">
        <ele>2025.1999511719</ele>
        <time>2014-01-12T11:49:17.000Z</time>
      </trkpt>
      <trkpt lat="45.60667" lon="6.65943">
        <ele>2026</ele>
        <time>2014-01-12T11:49:42.000Z</time>
      </trkpt>
      <trkpt lat="45.60667" lon="6.65941">
        <ele>2026.1999511719</ele>
        <time>2014-01-12T11:49:49.000Z</time>
      </trkpt>
      <trkpt lat="45.60669" lon="6.65929">
        <ele>2026.1999511719</ele>
        <time>2014-01-12T11:53:06.000Z</time>
      </trkpt>
      <trkpt lat="45.60667" lon="6.6594">
        <ele>2026</ele>
        <time>2014-01-12T11:54:51.000Z</time>
      </trkpt>
    </trkseg>
  </trk>
</gpx>